Observation data for Happy on 03/13/2018      Previous  Date  Next       Current Mesonet Observations  Soil Data  Daily Summary Page  Observations in Plain Language
KHA2 130500Z 18003KT 00/M09 A3023 RMK A01 T00011093  RH  049%=      5-min Rain = 0
KHA2 130501Z 15005KT 00/09 A3023 RMK A01 T00-00-93  RH  050%=      5-min Rain = 0
KHA2 130502Z 14007KT M00/M09 A3023 RMK A01 T10011090  RH  051%=      5-min Rain = 0
KHA2 130503Z 14008KT 00/M09 A3023 RMK A01 T00011088  RH  051%=      5-min Rain = 0
KHA2 130504Z 14008KT 00/M09 A3023 RMK A01 T00011088  RH  051%=      5-min Rain = 0
KHA2 130505Z 15007KT 00/M09 A3023 RMK A01 T00011088  RH  051%=      5-min Rain = 0
KHA2 130506Z 16004KT 00/09 A3023 RMK A01 T00000-89  RH  051%=      5-min Rain = 0
KHA2 130507Z 15006KT M00/M09 A3023 RMK A01 T10011090  RH  051%=      5-min Rain = 0
KHA2 130508Z 14008KT M00/M09 A3023 RMK A01 T10011088  RH  052%=      5-min Rain = 0
KHA2 130509Z 14007KT M00/M09 A3023 RMK A01 T10011087  RH  052%=      5-min Rain = 0
KHA2 130510Z 14007KT M00/M09 A3023 RMK A01 T10021088  RH  052%=      5-min Rain = 0
KHA2 130511Z 15006KT M00/M09 A3023 RMK A01 T10031089  RH  052%=      5-min Rain = 0
KHA2 130512Z 15005KT M00/M09 A3023 RMK A01 T10031089  RH  053%=      5-min Rain = 0
KHA2 130513Z 14006KT M00/M09 A3023 RMK A01 T10041089  RH  053%=      5-min Rain = 0
KHA2 130514Z 14007KT M00/M09 A3023 RMK A01 T10041088  RH  053%=      5-min Rain = 0
KHA2 130515Z 14007KT M00/M09 A3023 RMK A01 T10041086  RH  054%=      5-min Rain = 0
KHA2 130516Z 14008KT M00/M09 A3023 RMK A01 T10041086  RH  054%=      5-min Rain = 0
KHA2 130517Z 14007KT M00/M09 A3023 RMK A01 T10031085  RH  054%=      5-min Rain = 0
KHA2 130518Z 15007KT M00/M09 A3023 RMK A01 T10021085  RH  054%=      5-min Rain = 0
KHA2 130519Z 15007KT M00/M09 A3023 RMK A01 T10011085  RH  053%=      5-min Rain = 0
KHA2 130520Z 15007KT M00/M08 A3023 RMK A01 T10011084  RH  053%=      5-min Rain = 0
KHA2 130521Z 15006KT M00/M08 A3023 RMK A01 T10011084  RH  054%=      5-min Rain = 0
KHA2 130522Z 16006KT M00/M09 A3023 RMK A01 T10011085  RH  053%=      5-min Rain = 0
KHA2 130523Z 15006KT M00/M08 A3023 RMK A01 T10011084  RH  053%=      5-min Rain = 0
KHA2 130524Z 15007KT 00/08 A3023 RMK A01 T00-00-83  RH  054%=      5-min Rain = 0
KHA2 130525Z 15006KT 00/08 A3023 RMK A01 T00000-82  RH  054%=      5-min Rain = 0
KHA2 130526Z 15006KT 00/08 A3023 RMK A01 T00000-83  RH  054%=      5-min Rain = 0
KHA2 130527Z 15006KT 00/08 A3023 RMK A01 T00000-83  RH  054%=      5-min Rain = 0
KHA2 130528Z 15006KT 00/08 A3023 RMK A01 T00-00-83  RH  054%=      5-min Rain = 0
KHA2 130529Z 15006KT M00/M08 A3023 RMK A01 T10011084  RH  053%=      5-min Rain = 0
KHA2 130530Z 15006KT M00/M08 A3023 RMK A01 T10011084  RH  054%=      5-min Rain = 0
KHA2 130531Z 15006KT M00/M08 A3023 RMK A01 T10011083  RH  054%=      5-min Rain = 0
KHA2 130532Z 15007KT M00/M08 A3023 RMK A01 T10021083  RH  054%=      5-min Rain = 0
KHA2 130533Z 15007KT M00/M08 A3023 RMK A01 T10021083  RH  054%=      5-min Rain = 0
KHA2 130534Z 15007KT M00/M08 A3023 RMK A01 T10021082  RH  055%=      5-min Rain = 0
KHA2 130535Z 15006KT M00/M08 A3023 RMK A01 T10011082  RH  055%=      5-min Rain = 0
KHA2 130536Z 15006KT M00/M08 A3023 RMK A01 T10011082  RH  055%=      5-min Rain = 0
KHA2 130537Z 15006KT M00/M08 A3023 RMK A01 T10011082  RH  055%=      5-min Rain = 0
KHA2 130538Z 15006KT M00/M08 A3023 RMK A01 T10021082  RH  055%=      5-min Rain = 0
KHA2 130539Z 15007KT M00/M08 A3023 RMK A01 T10021081  RH  055%=      5-min Rain = 0
KHA2 130540Z 15007KT M00/M08 A3023 RMK A01 T10021081  RH  055%=      5-min Rain = 0
KHA2 130541Z 15007KT M00/M08 A3023 RMK A01 T10011081  RH  055%=      5-min Rain = 0
KHA2 130542Z 15006KT M00/M08 A3023 RMK A01 T10011081  RH  055%=      5-min Rain = 0
KHA2 130543Z 15006KT M00/M08 A3023 RMK A01 T10011081  RH  055%=      5-min Rain = 0
KHA2 130544Z 15006KT M00/M08 A3023 RMK A01 T10011080  RH  055%=      5-min Rain = 0
KHA2 130545Z 15006KT M00/M08 A3023 RMK A01 T10011080  RH  055%=      5-min Rain = 0
KHA2 130546Z 15006KT 00/08 A3023 RMK A01 T00-00-80  RH  055%=      5-min Rain = 0
KHA2 130547Z 15006KT 00/08 A3023 RMK A01 T00-00-80  RH  055%=      5-min Rain = 0
KHA2 130548Z 15006KT 00/08 A3023 RMK A01 T00-00-80  RH  055%=      5-min Rain = 0
KHA2 130549Z 15006KT 00/08 A3023 RMK A01 T00-00-80  RH  055%=      5-min Rain = 0
KHA2 130550Z 15006KT 00/08 A3023 RMK A01 T00000-79  RH  055%=      5-min Rain = 0
KHA2 130551Z 16006KT 00/M08 A3023 RMK A01 T00011079  RH  055%=      5-min Rain = 0
KHA2 130552Z 16005KT 00/M08 A3023 RMK A01 T00011079  RH  055%=      5-min Rain = 0
KHA2 130553Z 16005KT 00/M08 A3023 RMK A01 T00011079  RH  055%=      5-min Rain = 0
KHA2 130554Z 16005KT 00/M08 A3023 RMK A01 T00011079  RH  055%=      5-min Rain = 0
KHA2 130555Z 16005KT 00/M08 A3023 RMK A01 T00011079  RH  055%=      5-min Rain = 0
KHA2 130556Z 16005KT 00/M08 A3023 RMK A01 T00011079  RH  055%=      5-min Rain = 0
KHA2 130557Z 16005KT 00/M08 A3023 RMK A01 T00011079  RH  055%=      5-min Rain = 0
KHA2 130558Z 17005KT 00/M08 A3023 RMK A01 T00011080  RH  055%=      5-min Rain = 0
KHA2 130559Z 17005KT 00/M08 A3023 RMK A01 T00011081  RH  054%=      5-min Rain = 0
KHA2 130600Z 17005KT 00/M08 A3023 RMK A01 T00011081  RH  054%=      5-min Rain = 0
KHA2 130601Z 18005KT 00/M08 A3023 RMK A01 T00011082  RH  054%=      5-min Rain = 0
KHA2 130602Z 18005KT M00/M08 A3023 RMK A01 T10011083  RH  054%=      5-min Rain = 0
KHA2 130603Z 18005KT M00/M08 A3023 RMK A01 T10011083  RH  054%=      5-min Rain = 0
KHA2 130604Z 18006KT M00/M08 A3023 RMK A01 T10021083  RH  054%=      5-min Rain = 0
KHA2 130605Z 18006KT M00/M08 A3023 RMK A01 T10021083  RH  054%=      5-min Rain = 0
KHA2 130606Z 18006KT M00/M08 A3023 RMK A01 T10011083  RH  054%=      5-min Rain = 0
KHA2 130607Z 18007KT M00/M08 A3023 RMK A01 T10011083  RH  054%=      5-min Rain = 0
KHA2 130608Z 18007KT M00/M08 A3023 RMK A01 T10011083  RH  054%=      5-min Rain = 0
KHA2 130609Z 18007KT M00/M08 A3023 RMK A01 T10021083  RH  054%=      5-min Rain = 0
KHA2 130610Z 18008KT M00/M08 A3023 RMK A01 T10011084  RH  054%=      5-min Rain = 0
KHA2 130611Z 18008KT M00/M08 A3023 RMK A01 T10011083  RH  054%=      5-min Rain = 0
KHA2 130612Z 18009KT 00/M08 A3023 RMK A01 T00011083  RH  053%=      5-min Rain = 0
KHA2 130613Z 18009KT 00/M08 A3022 RMK A01 T00021082  RH  053%=      5-min Rain = 0
KHA2 130614Z 18009KT 00/M08 A3022 RMK A01 T00041081  RH  053%=      5-min Rain = 0
KHA2 130615Z 18009KT 01/M08 A3022 RMK A01 T00051080  RH  053%=      5-min Rain = 0
KHA2 130616Z 18009KT 01/M08 A3022 RMK A01 T00061080  RH  053%=      5-min Rain = 0
KHA2 130617Z 18009KT 01/M08 A3022 RMK A01 T00071080  RH  052%=      5-min Rain = 0
KHA2 130618Z 18009KT 01/M08 A3022 RMK A01 T00061081  RH  052%=      5-min Rain = 0
KHA2 130619Z 18008KT 01/M08 A3022 RMK A01 T00061081  RH  052%=      5-min Rain = 0
KHA2 130620Z 18008KT 01/M08 A3022 RMK A01 T00061081  RH  052%=      5-min Rain = 0
KHA2 130621Z 18008KT 01/M08 A3022 RMK A01 T00051082  RH  052%=      5-min Rain = 0
KHA2 130622Z 18008KT 00/M08 A3022 RMK A01 T00041083  RH  052%=      5-min Rain = 0
KHA2 130623Z 18008KT 00/M08 A3022 RMK A01 T00031083  RH  053%=      5-min Rain = 0
KHA2 130624Z 18008KT 00/M08 A3022 RMK A01 T00021083  RH  053%=      5-min Rain = 0
KHA2 130625Z 18007KT 00/M08 A3022 RMK A01 T00011083  RH  053%=      5-min Rain = 0
KHA2 130626Z 18007KT 00/M08 A3022 RMK A01 T00011083  RH  053%=      5-min Rain = 0
KHA2 130627Z 18008KT 00/08 A3022 RMK A01 T00-00-83  RH  053%=      5-min Rain = 0
KHA2 130628Z 18008KT 00/08 A3022 RMK A01 T00-00-83  RH  054%=      5-min Rain = 0
KHA2 130629Z 18008KT M00/M08 A3022 RMK A01 T10011083  RH  054%=      5-min Rain = 0
KHA2 130630Z 18008KT 00/08 A3022 RMK A01 T00-00-82  RH  054%=      5-min Rain = 0
KHA2 130631Z 18008KT 00/08 A3022 RMK A01 T00-00-82  RH  054%=      5-min Rain = 0
KHA2 130632Z 18008KT 00/08 A3022 RMK A01 T00-00-81  RH  054%=      5-min Rain = 0
KHA2 130633Z 18008KT M00/M08 A3022 RMK A01 T10011082  RH  054%=      5-min Rain = 0
KHA2 130634Z 18008KT M00/M08 A3022 RMK A01 T10021082  RH  054%=      5-min Rain = 0
KHA2 130635Z 18008KT M00/M08 A3022 RMK A01 T10031083  RH  055%=      5-min Rain = 0
KHA2 130636Z 18007KT M00/M08 A3022 RMK A01 T10041083  RH  055%=      5-min Rain = 0
KHA2 130637Z 18007KT M00/M08 A3022 RMK A01 T10041083  RH  055%=      5-min Rain = 0
KHA2 130638Z 18007KT M01/M08 A3022 RMK A01 T10051084  RH  055%=      5-min Rain = 0
KHA2 130639Z 18006KT M01/M08 A3022 RMK A01 T10061083  RH  056%=      5-min Rain = 0
KHA2 130640Z 18006KT M01/M08 A3022 RMK A01 T10061084  RH  056%=      5-min Rain = 0
KHA2 130641Z 18006KT M01/M08 A3022 RMK A01 T10071084  RH  056%=      5-min Rain = 0
KHA2 130642Z 18006KT M01/M09 A3022 RMK A01 T10081085  RH  056%=      5-min Rain = 0
KHA2 130643Z 18005KT M01/M09 A3022 RMK A01 T10081085  RH  056%=      5-min Rain = 0
KHA2 130644Z 19005KT M01/M09 A3022 RMK A01 T10091086  RH  056%=      5-min Rain = 0
KHA2 130645Z 18005KT M01/M09 A3022 RMK A01 T10101086  RH  056%=      5-min Rain = 0
KHA2 130646Z 18005KT M01/M09 A3022 RMK A01 T10101085  RH  057%=      5-min Rain = 0
KHA2 130647Z 18005KT M01/M08 A3022 RMK A01 T10091083  RH  057%=      5-min Rain = 0
KHA2 130648Z 18005KT M01/M08 A3022 RMK A01 T10081083  RH  057%=      5-min Rain = 0
KHA2 130649Z 18005KT M01/M08 A3022 RMK A01 T10071082  RH  057%=      5-min Rain = 0
KHA2 130650Z 18006KT M01/M08 A3022 RMK A01 T10061082  RH  056%=      5-min Rain = 0
KHA2 130651Z 18006KT M01/M08 A3022 RMK A01 T10051083  RH  056%=      5-min Rain = 0
KHA2 130652Z 18006KT M01/M08 A3022 RMK A01 T10051083  RH  056%=      5-min Rain = 0
KHA2 130653Z 18006KT M01/M08 A3022 RMK A01 T10061083  RH  056%=      5-min Rain = 0
KHA2 130654Z 18006KT M01/M08 A3022 RMK A01 T10061084  RH  056%=      5-min Rain = 0
KHA2 130655Z 18006KT M01/M08 A3022 RMK A01 T10071084  RH  056%=      5-min Rain = 0
KHA2 130656Z 18006KT M01/M09 A3022 RMK A01 T10091087  RH  056%=      5-min Rain = 0
KHA2 130657Z 19006KT M01/M09 A3022 RMK A01 T10111089  RH  056%=      5-min Rain = 0
KHA2 130658Z 19006KT M01/M09 A3022 RMK A01 T10121088  RH  056%=      5-min Rain = 0
KHA2 130659Z 19006KT M01/M09 A3022 RMK A01 T10121088  RH  057%=      5-min Rain = 0
KHA2 130700Z 19007KT M01/M09 A3022 RMK A01 T10131088  RH  057%=      5-min Rain = 0
KHA2 130701Z 19007KT M01/M09 A3022 RMK A01 T10131088  RH  057%=      5-min Rain = 0
KHA2 130702Z 19007KT M01/M09 A3023 RMK A01 T10131088  RH  057%=      5-min Rain = 0
KHA2 130703Z 19007KT M01/M09 A3023 RMK A01 T10121090  RH  056%=      5-min Rain = 0
KHA2 130704Z 19007KT M01/M09 A3023 RMK A01 T10121089  RH  056%=      5-min Rain = 0
KHA2 130705Z 19007KT M01/M09 A3023 RMK A01 T10101089  RH  055%=      5-min Rain = 0
KHA2 130706Z 19008KT M01/M09 A3022 RMK A01 T10101089  RH  055%=      5-min Rain = 0
KHA2 130707Z 20008KT M01/M09 A3022 RMK A01 T10081089  RH  054%=      5-min Rain = 0
KHA2 130708Z 20007KT M01/M09 A3022 RMK A01 T10081089  RH  054%=      5-min Rain = 0
KHA2 130709Z 20008KT M01/M09 A3022 RMK A01 T10091091  RH  054%=      5-min Rain = 0
KHA2 130710Z 20007KT M01/M09 A3022 RMK A01 T10101092  RH  054%=      5-min Rain = 0
KHA2 130711Z 20007KT M01/M09 A3022 RMK A01 T10111093  RH  054%=      5-min Rain = 0
KHA2 130712Z 20007KT M01/M09 A3022 RMK A01 T10101092  RH  054%=      5-min Rain = 0
KHA2 130713Z 20007KT M01/M09 A3022 RMK A01 T10101092  RH  054%=      5-min Rain = 0
KHA2 130714Z 20007KT M01/M09 A3022 RMK A01 T10091091  RH  054%=      5-min Rain = 0
KHA2 130715Z 20007KT M01/M09 A3022 RMK A01 T10091091  RH  054%=      5-min Rain = 0
KHA2 130716Z 21007KT M01/M09 A3022 RMK A01 T10091091  RH  054%=      5-min Rain = 0
KHA2 130717Z 21007KT M01/M09 A3022 RMK A01 T10091091  RH  054%=      5-min Rain = 0
KHA2 130718Z 21006KT M01/M09 A3022 RMK A01 T10091091  RH  054%=      5-min Rain = 0
KHA2 130719Z 21006KT M01/M09 A3022 RMK A01 T10091091  RH  054%=      5-min Rain = 0
KHA2 130720Z 21006KT M01/M09 A3022 RMK A01 T10091091  RH  054%=      5-min Rain = 0
KHA2 130721Z 21006KT M01/M09 A3022 RMK A01 T10091092  RH  053%=      5-min Rain = 0
KHA2 130722Z 21006KT M01/M09 A3022 RMK A01 T10101091  RH  054%=      5-min Rain = 0
KHA2 130723Z 21006KT M01/M09 A3022 RMK A01 T10101091  RH  054%=      5-min Rain = 0
KHA2 130724Z 21006KT M01/M09 A3022 RMK A01 T10101090  RH  054%=      5-min Rain = 0
KHA2 130725Z 21006KT M01/M09 A3022 RMK A01 T10091090  RH  054%=      5-min Rain = 0
KHA2 130726Z 22005KT M01/M09 A3022 RMK A01 T10101091  RH  054%=      5-min Rain = 0
KHA2 130727Z 22005KT M01/M09 A3022 RMK A01 T10111093  RH  054%=      5-min Rain = 0
KHA2 130728Z 22005KT M01/M09 A3022 RMK A01 T10111094  RH  053%=      5-min Rain = 0
KHA2 130729Z 22005KT M01/M10 A3022 RMK A01 T10121096  RH  053%=      5-min Rain = 0
KHA2 130730Z 22006KT M01/M10 A3022 RMK A01 T10121096  RH  053%=      5-min Rain = 0
KHA2 130731Z 22006KT M01/M10 A3022 RMK A01 T10131096  RH  053%=      5-min Rain = 0
KHA2 130732Z 22006KT M01/M10 A3023 RMK A01 T10131096  RH  053%=      5-min Rain = 0
KHA2 130733Z 22006KT M01/M10 A3023 RMK A01 T10131097  RH  053%=      5-min Rain = 0
KHA2 130734Z 22006KT M01/M10 A3023 RMK A01 T10131097  RH  053%=      5-min Rain = 0
KHA2 130735Z 21006KT M01/M10 A3023 RMK A01 T10131097  RH  053%=      5-min Rain = 0
KHA2 130736Z 21006KT M01/M10 A3023 RMK A01 T10131097  RH  053%=      5-min Rain = 0
KHA2 130737Z 21006KT M01/M10 A3023 RMK A01 T10141098  RH  053%=      5-min Rain = 0
KHA2 130738Z 21005KT M02/M10 A3023 RMK A01 T10151098  RH  053%=      5-min Rain = 0
KHA2 130739Z 21004KT M02/M10 A3023 RMK A01 T10151096  RH  054%=      5-min Rain = 0
KHA2 130740Z 21004KT M02/M10 A3023 RMK A01 T10151095  RH  055%=      5-min Rain = 0
KHA2 130741Z 21003KT M02/M09 A3023 RMK A01 T10151094  RH  055%=      5-min Rain = 0
KHA2 130742Z 21003KT M02/M09 A3023 RMK A01 T10151093  RH  055%=      5-min Rain = 0
KHA2 130743Z 22003KT M02/M09 A3023 RMK A01 T10151093  RH  055%=      5-min Rain = 0
KHA2 130744Z 21003KT M02/M09 A3023 RMK A01 T10151093  RH  055%=      5-min Rain = 0
KHA2 130745Z 21003KT M02/M09 A3023 RMK A01 T10151094  RH  055%=      5-min Rain = 0
KHA2 130746Z 20002KT M02/M10 A3023 RMK A01 T10151095  RH  055%=      5-min Rain = 0
KHA2 130747Z 19002KT M02/M10 A3023 RMK A01 T10151095  RH  054%=      5-min Rain = 0
KHA2 130748Z 14001KT M01/M10 A3023 RMK A01 T10141095  RH  054%=      5-min Rain = 0
KHA2 130749Z 10002KT M01/M09 A3023 RMK A01 T10121089  RH  056%=      5-min Rain = 0
KHA2 130750Z 09003KT M01/M08 A3023 RMK A01 T10101078  RH  060%=      5-min Rain = 0
KHA2 130751Z 09005KT M01/M07 A3023 RMK A01 T10111074  RH  062%=      5-min Rain = 0
KHA2 130752Z 09007KT M01/M08 A3023 RMK A01 T10121075  RH  062%=      5-min Rain = 0
KHA2 130753Z 09007KT M01/M08 A3023 RMK A01 T10121078  RH  061%=      5-min Rain = 0
KHA2 130754Z 10006KT M01/M08 A3023 RMK A01 T10121079  RH  060%=      5-min Rain = 0
KHA2 130755Z 10006KT M01/M08 A3023 RMK A01 T10121082  RH  059%=      5-min Rain = 0
KHA2 130756Z 09007KT M01/M08 A3023 RMK A01 T10111081  RH  059%=      5-min Rain = 0
KHA2 130757Z 08007KT M01/M08 A3023 RMK A01 T10121084  RH  058%=      5-min Rain = 0
KHA2 130758Z 09006KT M01/M08 A3023 RMK A01 T10131084  RH  058%=      5-min Rain = 0
KHA2 130759Z 09006KT M01/M08 A3023 RMK A01 T10131082  RH  060%=      5-min Rain = 0
KHA2 130800Z 10005KT M01/M08 A3023 RMK A01 T10131080  RH  060%=      5-min Rain = 0
KHA2 130801Z 11005KT M01/M08 A3023 RMK A01 T10131079  RH  061%=      5-min Rain = 0
KHA2 130802Z 11004KT M01/M08 A3023 RMK A01 T10121078  RH  061%=      5-min Rain = 0
KHA2 130803Z 12005KT M01/M08 A3023 RMK A01 T10111077  RH  060%=      5-min Rain = 0
KHA2 130804Z 12005KT M01/M08 A3023 RMK A01 T10091077  RH  060%=      5-min Rain = 0
KHA2 130805Z 12005KT M01/M08 A3024 RMK A01 T10081076  RH  060%=      5-min Rain = 0
KHA2 130806Z 12005KT M01/M08 A3024 RMK A01 T10081077  RH  060%=      5-min Rain = 0
KHA2 130807Z 11006KT M01/M08 A3024 RMK A01 T10071077  RH  059%=      5-min Rain = 0
KHA2 130808Z 11006KT M01/M08 A3024 RMK A01 T10071079  RH  058%=      5-min Rain = 0
KHA2 130809Z 11005KT M01/M08 A3024 RMK A01 T10071081  RH  057%=      5-min Rain = 0
KHA2 130810Z 11005KT M01/M08 A3024 RMK A01 T10081081  RH  058%=      5-min Rain = 0
KHA2 130811Z 11005KT M01/M08 A3024 RMK A01 T10081080  RH  058%=      5-min Rain = 0
KHA2 130812Z 10005KT M01/M08 A3024 RMK A01 T10081080  RH  058%=      5-min Rain = 0
KHA2 130813Z 10005KT M01/M08 A3024 RMK A01 T10081079  RH  059%=      5-min Rain = 0
KHA2 130814Z 10005KT M01/M08 A3024 RMK A01 T10091079  RH  059%=      5-min Rain = 0
KHA2 130815Z 10005KT M01/M08 A3024 RMK A01 T10091077  RH  060%=      5-min Rain = 0
KHA2 130816Z 09005KT M01/M07 A3024 RMK A01 T10091074  RH  061%=      5-min Rain = 0
KHA2 130817Z 09005KT M01/M07 A3024 RMK A01 T10091074  RH  061%=      5-min Rain = 0
KHA2 130818Z 10006KT M01/M08 A3024 RMK A01 T10081075  RH  061%=      5-min Rain = 0
KHA2 130819Z 10005KT M01/M08 A3024 RMK A01 T10081075  RH  061%=      5-min Rain = 0
KHA2 130820Z 11005KT M01/M07 A3024 RMK A01 T10081074  RH  061%=      5-min Rain = 0
KHA2 130821Z 10005KT M01/M08 A3024 RMK A01 T10081076  RH  060%=      5-min Rain = 0
KHA2 130822Z 09005KT M01/M08 A3024 RMK A01 T10101079  RH  059%=      5-min Rain = 0
KHA2 130823Z 09005KT M01/M08 A3024 RMK A01 T10101080  RH  059%=      5-min Rain = 0
KHA2 130824Z 08005KT M01/M08 A3024 RMK A01 T10121081  RH  059%=      5-min Rain = 0
KHA2 130825Z 08006KT M01/M08 A3024 RMK A01 T10141081  RH  060%=      5-min Rain = 0
KHA2 130826Z 08007KT M02/M08 A3024 RMK A01 T10171081  RH  062%=      5-min Rain = 0
KHA2 130827Z 08007KT M02/M08 A3024 RMK A01 T10181080  RH  063%=      5-min Rain = 0
KHA2 130828Z 09007KT M02/M08 A3024 RMK A01 T10181079  RH  063%=      5-min Rain = 0
KHA2 130829Z 10006KT M02/M08 A3024 RMK A01 T10171079  RH  063%=      5-min Rain = 0
KHA2 130830Z 11006KT M02/M08 A3024 RMK A01 T10151078  RH  062%=      5-min Rain = 0
KHA2 130831Z 11006KT M01/M08 A3024 RMK A01 T10141076  RH  062%=      5-min Rain = 0
KHA2 130832Z 11006KT M01/M07 A3024 RMK A01 T10121073  RH  063%=      5-min Rain = 0
KHA2 130833Z 09008KT M01/M07 A3024 RMK A01 T10101073  RH  062%=      5-min Rain = 0
KHA2 130834Z 09008KT M01/M08 A3024 RMK A01 T10101077  RH  060%=      5-min Rain = 0
KHA2 130835Z 09009KT M01/M08 A3024 RMK A01 T10101080  RH  059%=      5-min Rain = 0
KHA2 130836Z 10008KT M01/M08 A3024 RMK A01 T10111083  RH  058%=      5-min Rain = 0
KHA2 130837Z 10008KT M01/M09 A3024 RMK A01 T10121085  RH  057%=      5-min Rain = 0
KHA2 130838Z 10007KT M01/M09 A3024 RMK A01 T10131085  RH  058%=      5-min Rain = 0
KHA2 130839Z 10007KT M01/M09 A3024 RMK A01 T10141085  RH  058%=      5-min Rain = 0
KHA2 130840Z 10007KT M01/M08 A3024 RMK A01 T10141084  RH  059%=      5-min Rain = 0
KHA2 130841Z 10007KT M01/M08 A3024 RMK A01 T10141083  RH  059%=      5-min Rain = 0
KHA2 130842Z 10006KT M01/M08 A3024 RMK A01 T10141084  RH  059%=      5-min Rain = 0
KHA2 130843Z 10006KT M02/M09 A3024 RMK A01 T10151089  RH  057%=      5-min Rain = 0
KHA2 130844Z 10006KT M02/M10 A3024 RMK A01 T10161095  RH  055%=      5-min Rain = 0
KHA2 130845Z 10006KT M02/M10 A3024 RMK A01 T10181098  RH  054%=      5-min Rain = 0
KHA2 130846Z 10006KT M02/M10 A3024 RMK A01 T10191100  RH  054%=      5-min Rain = 0
KHA2 130847Z 11005KT M02/M10 A3024 RMK A01 T10211101  RH  054%=      5-min Rain = 0
KHA2 130848Z 11005KT M02/M10 A3024 RMK A01 T10221101  RH  055%=      5-min Rain = 0
KHA2 130849Z 11005KT M02/M10 A3024 RMK A01 T10231100  RH  056%=      5-min Rain = 0
KHA2 130850Z 11005KT M02/M10 A3024 RMK A01 T10231099  RH  056%=      5-min Rain = 0
KHA2 130851Z 11005KT M02/M10 A3024 RMK A01 T10231099  RH  056%=      5-min Rain = 0
KHA2 130852Z 11005KT M02/M10 A3024 RMK A01 T10231099  RH  056%=      5-min Rain = 0
KHA2 130853Z 11005KT M02/M10 A3024 RMK A01 T10221098  RH  056%=      5-min Rain = 0
KHA2 130854Z 11005KT M02/M10 A3024 RMK A01 T10221098  RH  056%=      5-min Rain = 0
KHA2 130855Z 11005KT M02/M10 A3024 RMK A01 T10221098  RH  056%=      5-min Rain = 0
KHA2 130856Z 10005KT M02/M10 A3024 RMK A01 T10221097  RH  056%=      5-min Rain = 0
KHA2 130857Z 10005KT M02/M09 A3024 RMK A01 T10211093  RH  058%=      5-min Rain = 0
KHA2 130858Z 10006KT M02/M09 A3024 RMK A01 T10191090  RH  059%=      5-min Rain = 0
KHA2 130859Z 10005KT M02/M09 A3024 RMK A01 T10181088  RH  059%=      5-min Rain = 0
KHA2 130900Z 10005KT M02/M09 A3024 RMK A01 T10171088  RH  059%=      5-min Rain = 0
KHA2 130901Z 10005KT M02/M09 A3024 RMK A01 T10161086  RH  059%=      5-min Rain = 0
KHA2 130902Z 10005KT M02/M08 A3024 RMK A01 T10151084  RH  059%=      5-min Rain = 0
KHA2 130903Z 10005KT M02/M08 A3024 RMK A01 T10151084  RH  059%=      5-min Rain = 0
KHA2 130904Z 10005KT M01/M08 A3024 RMK A01 T10141084  RH  059%=      5-min Rain = 0
KHA2 130905Z 10005KT M01/M08 A3024 RMK A01 T10141084  RH  059%=      5-min Rain = 0
KHA2 130906Z 10004KT M01/M08 A3024 RMK A01 T10131084  RH  058%=      5-min Rain = 0
KHA2 130907Z 10004KT M01/M09 A3024 RMK A01 T10131085  RH  058%=      5-min Rain = 0
KHA2 130908Z 10004KT M01/M08 A3024 RMK A01 T10121084  RH  058%=      5-min Rain = 0
KHA2 130909Z 10004KT M01/M08 A3024 RMK A01 T10121084  RH  058%=      5-min Rain = 0
KHA2 130910Z 10003KT M01/M08 A3024 RMK A01 T10121084  RH  058%=      5-min Rain = 0
KHA2 130911Z 10003KT M01/M09 A3024 RMK A01 T10121085  RH  057%=      5-min Rain = 0
KHA2 130912Z 10003KT M01/M08 A3024 RMK A01 T10111084  RH  058%=      5-min Rain = 0
KHA2 130913Z 10002KT M01/M08 A3024 RMK A01 T10121082  RH  059%=      5-min Rain = 0
KHA2 130914Z 11003KT M01/M08 A3024 RMK A01 T10131083  RH  059%=      5-min Rain = 0
KHA2 130915Z 11003KT M01/M09 A3024 RMK A01 T10141086  RH  058%=      5-min Rain = 0
KHA2 130916Z 11002KT M02/M09 A3024 RMK A01 T10151090  RH  057%=      5-min Rain = 0
KHA2 130917Z 11003KT M02/M09 A3024 RMK A01 T10161088  RH  058%=      5-min Rain = 0
KHA2 130918Z 11003KT M02/M09 A3024 RMK A01 T10161087  RH  058%=      5-min Rain = 0
KHA2 130919Z 11003KT M02/M09 A3024 RMK A01 T10161090  RH  057%=      5-min Rain = 0
KHA2 130920Z 11003KT M02/M09 A3024 RMK A01 T10161090  RH  057%=      5-min Rain = 0
KHA2 130921Z 11003KT M02/M09 A3024 RMK A01 T10161089  RH  058%=      5-min Rain = 0
KHA2 130922Z 11003KT M02/M09 A3024 RMK A01 T10161088  RH  058%=      5-min Rain = 0
KHA2 130923Z 11003KT M02/M09 A3024 RMK A01 T10151088  RH  058%=      5-min Rain = 0
KHA2 130924Z 11004KT M02/M09 A3024 RMK A01 T10151089  RH  057%=      5-min Rain = 0
KHA2 130925Z 12004KT M01/M09 A3024 RMK A01 T10141089  RH  057%=      5-min Rain = 0
KHA2 130926Z 12004KT M01/M09 A3024 RMK A01 T10131090  RH  056%=      5-min Rain = 0
KHA2 130927Z 12004KT M01/M09 A3024 RMK A01 T10131091  RH  055%=      5-min Rain = 0
KHA2 130928Z 11004KT M01/M09 A3024 RMK A01 T10131092  RH  055%=      5-min Rain = 0
KHA2 130929Z 11004KT M01/M09 A3024 RMK A01 T10131093  RH  055%=      5-min Rain = 0
KHA2 130930Z 11004KT M01/M09 A3024 RMK A01 T10131093  RH  055%=      5-min Rain = 0
KHA2 130931Z 12004KT M01/M09 A3024 RMK A01 T10131093  RH  055%=      5-min Rain = 0
KHA2 130932Z 12004KT M01/M09 A3024 RMK A01 T10131093  RH  055%=      5-min Rain = 0
KHA2 130933Z 12003KT M01/M09 A3024 RMK A01 T10131094  RH  054%=      5-min Rain = 0
KHA2 130934Z 13003KT M01/M10 A3024 RMK A01 T10141095  RH  054%=      5-min Rain = 0
KHA2 130935Z 13003KT M01/M10 A3024 RMK A01 T10141095  RH  054%=      5-min Rain = 0
KHA2 130936Z 13003KT M01/M10 A3024 RMK A01 T10141095  RH  054%=      5-min Rain = 0
KHA2 130937Z 13003KT M02/M10 A3024 RMK A01 T10151096  RH  054%=      5-min Rain = 0
KHA2 130938Z 13004KT M02/M10 A3024 RMK A01 T10151095  RH  054%=      5-min Rain = 0
KHA2 130939Z 13004KT M02/M09 A3024 RMK A01 T10151094  RH  055%=      5-min Rain = 0
KHA2 130940Z 12004KT M02/M09 A3024 RMK A01 T10151094  RH  055%=      5-min Rain = 0
KHA2 130941Z 12004KT M02/M09 A3024 RMK A01 T10151093  RH  055%=      5-min Rain = 0
KHA2 130942Z 12003KT M02/M09 A3024 RMK A01 T10151093  RH  055%=      5-min Rain = 0
KHA2 130943Z 12003KT M02/M09 A3024 RMK A01 T10151093  RH  055%=      5-min Rain = 0
KHA2 130944Z 11004KT M02/M09 A3024 RMK A01 T10151093  RH  055%=      5-min Rain = 0
KHA2 130945Z 11004KT M01/M09 A3024 RMK A01 T10141092  RH  055%=      5-min Rain = 0
KHA2 130946Z 11003KT M01/M09 A3024 RMK A01 T10131091  RH  055%=      5-min Rain = 0
KHA2 130947Z 12004KT M01/M09 A3024 RMK A01 T10131092  RH  055%=      5-min Rain = 0
KHA2 130948Z 12004KT M01/M09 A3024 RMK A01 T10131093  RH  054%=      5-min Rain = 0
KHA2 130949Z 12004KT M01/M09 A3024 RMK A01 T10131093  RH  054%=      5-min Rain = 0
KHA2 130950Z 12004KT M01/M09 A3024 RMK A01 T10131093  RH  054%=      5-min Rain = 0
KHA2 130951Z 12004KT M01/M09 A3024 RMK A01 T10131094  RH  054%=      5-min Rain = 0
KHA2 130952Z 12004KT M01/M09 A3024 RMK A01 T10141094  RH  054%=      5-min Rain = 0
KHA2 130953Z 12004KT M01/M09 A3024 RMK A01 T10141094  RH  055%=      5-min Rain = 0
KHA2 130954Z 12004KT M01/M09 A3024 RMK A01 T10141094  RH  054%=      5-min Rain = 0
KHA2 130955Z 12004KT M01/M09 A3024 RMK A01 T10141094  RH  054%=      5-min Rain = 0
KHA2 130956Z 12004KT M02/M10 A3024 RMK A01 T10151095  RH  054%=      5-min Rain = 0
KHA2 130957Z 12004KT M02/M10 A3024 RMK A01 T10151096  RH  054%=      5-min Rain = 0
KHA2 130958Z 12004KT M02/M10 A3024 RMK A01 T10161096  RH  054%=      5-min Rain = 0
KHA2 130959Z 12004KT M02/M10 A3024 RMK A01 T10161097  RH  054%=      5-min Rain = 0
KHA2 131000Z 13004KT M02/M10 A3024 RMK A01 T10171097  RH  055%=      5-min Rain = 0
KHA2 131001Z 13004KT M02/M10 A3024 RMK A01 T10181097  RH  055%=      5-min Rain = 0
KHA2 131002Z 13004KT M02/M10 A3024 RMK A01 T10191097  RH  055%=      5-min Rain = 0
KHA2 131003Z 13004KT M02/M10 A3024 RMK A01 T10191097  RH  055%=      5-min Rain = 0
KHA2 131004Z 13004KT M02/M10 A3024 RMK A01 T10201097  RH  056%=      5-min Rain = 0
KHA2 131005Z 13004KT M02/M10 A3024 RMK A01 T10201097  RH  056%=      5-min Rain = 0
KHA2 131006Z 13004KT M02/M10 A3024 RMK A01 T10211097  RH  056%=      5-min Rain = 0
KHA2 131007Z 13004KT M02/M10 A3024 RMK A01 T10211097  RH  056%=      5-min Rain = 0
KHA2 131008Z 13004KT M02/M10 A3024 RMK A01 T10221097  RH  056%=      5-min Rain = 0
KHA2 131009Z 13004KT M02/M10 A3024 RMK A01 T10221097  RH  057%=      5-min Rain = 0
KHA2 131010Z 14004KT M02/M10 A3024 RMK A01 T10221096  RH  057%=      5-min Rain = 0
KHA2 131011Z 14004KT M02/M10 A3024 RMK A01 T10221096  RH  057%=      5-min Rain = 0
KHA2 131012Z 14004KT M02/M10 A3024 RMK A01 T10221095  RH  058%=      5-min Rain = 0
KHA2 131013Z 14004KT M02/M09 A3024 RMK A01 T10231094  RH  058%=      5-min Rain = 0
KHA2 131014Z 14004KT M02/M09 A3024 RMK A01 T10231094  RH  058%=      5-min Rain = 0
KHA2 131015Z 15004KT M02/M09 A3024 RMK A01 T10231094  RH  058%=      5-min Rain = 0
KHA2 131016Z 15004KT M02/M09 A3024 RMK A01 T10241094  RH  058%=      5-min Rain = 0
KHA2 131017Z 16004KT M02/M10 A3024 RMK A01 T10241095  RH  058%=      5-min Rain = 0
KHA2 131018Z 16004KT M03/M10 A3024 RMK A01 T10251095  RH  059%=      5-min Rain = 0
KHA2 131019Z 16004KT M03/M09 A3024 RMK A01 T10251093  RH  059%=      5-min Rain = 0
KHA2 131020Z 16004KT M03/M09 A3024 RMK A01 T10251093  RH  059%=      5-min Rain = 0
KHA2 131021Z 16004KT M03/M09 A3024 RMK A01 T10251093  RH  059%=      5-min Rain = 0
KHA2 131022Z 16004KT M03/M09 A3024 RMK A01 T10251092  RH  060%=      5-min Rain = 0
KHA2 131023Z 16004KT M03/M09 A3024 RMK A01 T10251091  RH  060%=      5-min Rain = 0
KHA2 131024Z 16005KT M03/M09 A3024 RMK A01 T10251091  RH  061%=      5-min Rain = 0
KHA2 131025Z 16005KT M03/M09 A3024 RMK A01 T10251090  RH  061%=      5-min Rain = 0
KHA2 131026Z 16005KT M02/M09 A3024 RMK A01 T10241090  RH  061%=      5-min Rain = 0
KHA2 131027Z 17005KT M03/M09 A3024 RMK A01 T10251091  RH  061%=      5-min Rain = 0
KHA2 131028Z 17005KT M03/M09 A3024 RMK A01 T10271093  RH  060%=      5-min Rain = 0
KHA2 131029Z 17005KT M03/M09 A3024 RMK A01 T10271092  RH  061%=      5-min Rain = 0
KHA2 131030Z 17005KT M03/M09 A3024 RMK A01 T10271091  RH  061%=      5-min Rain = 0
KHA2 131031Z 17005KT M03/M09 A3024 RMK A01 T10281092  RH  061%=      5-min Rain = 0
KHA2 131032Z 17005KT M03/M09 A3024 RMK A01 T10281092  RH  061%=      5-min Rain = 0
KHA2 131033Z 17005KT M03/M09 A3024 RMK A01 T10281093  RH  061%=      5-min Rain = 0
KHA2 131034Z 17005KT M03/M09 A3024 RMK A01 T10281094  RH  061%=      5-min Rain = 0
KHA2 131035Z 17006KT M03/M09 A3024 RMK A01 T10281094  RH  060%=      5-min Rain = 0
KHA2 131036Z 17006KT M03/M09 A3024 RMK A01 T10281094  RH  060%=      5-min Rain = 0
KHA2 131037Z 17006KT M03/M10 A3024 RMK A01 T10291095  RH  061%=      5-min Rain = 0
KHA2 131038Z 17006KT M03/M10 A3024 RMK A01 T10301095  RH  061%=      5-min Rain = 0
KHA2 131039Z 17006KT M03/M10 A3024 RMK A01 T10311095  RH  062%=      5-min Rain = 0
KHA2 131040Z 18006KT M03/M09 A3024 RMK A01 T10321094  RH  062%=      5-min Rain = 0
KHA2 131041Z 18006KT M03/M09 A3024 RMK A01 T10321094  RH  063%=      5-min Rain = 0
KHA2 131042Z 18006KT M03/M09 A3024 RMK A01 T10321093  RH  063%=      5-min Rain = 0
KHA2 131043Z 18006KT M03/M09 A3024 RMK A01 T10311091  RH  063%=      5-min Rain = 0
KHA2 131044Z 18006KT M03/M09 A3024 RMK A01 T10311091  RH  063%=      5-min Rain = 0
KHA2 131045Z 18006KT M03/M09 A3024 RMK A01 T10301090  RH  063%=      5-min Rain = 0
KHA2 131046Z 18006KT M03/M09 A3024 RMK A01 T10301090  RH  063%=      5-min Rain = 0
KHA2 131047Z 18005KT M03/M09 A3024 RMK A01 T10291089  RH  063%=      5-min Rain = 0
KHA2 131048Z 18005KT M03/M09 A3024 RMK A01 T10281088  RH  063%=      5-min Rain = 0
KHA2 131049Z 18005KT M03/M09 A3024 RMK A01 T10271088  RH  063%=      5-min Rain = 0
KHA2 131050Z 19005KT M03/M09 A3024 RMK A01 T10271087  RH  063%=      5-min Rain = 0
KHA2 131051Z 19004KT M03/M09 A3024 RMK A01 T10261087  RH  063%=      5-min Rain = 0
KHA2 131052Z 19004KT M03/M09 A3025 RMK A01 T10251086  RH  063%=      5-min Rain = 0
KHA2 131053Z 19004KT M02/M09 A3025 RMK A01 T10241086  RH  063%=      5-min Rain = 0
KHA2 131054Z 19004KT M02/M09 A3025 RMK A01 T10241085  RH  063%=      5-min Rain = 0
KHA2 131055Z 18003KT M02/M09 A3025 RMK A01 T10231085  RH  063%=      5-min Rain = 0
KHA2 131056Z 18003KT M02/M09 A3025 RMK A01 T10231085  RH  063%=      5-min Rain = 0
KHA2 131057Z 17003KT M02/M08 A3025 RMK A01 T10231084  RH  063%=      5-min Rain = 0
KHA2 131058Z 17003KT M02/M08 A3025 RMK A01 T10221084  RH  063%=      5-min Rain = 0
KHA2 131059Z 17003KT M02/M08 A3025 RMK A01 T10221083  RH  063%=      5-min Rain = 0
KHA2 131100Z 17003KT M02/M08 A3025 RMK A01 T10211083  RH  063%=      5-min Rain = 0
KHA2 131101Z 17003KT M02/M08 A3025 RMK A01 T10211084  RH  062%=      5-min Rain = 0
KHA2 131102Z 17003KT M02/M08 A3025 RMK A01 T10211084  RH  062%=      5-min Rain = 0
KHA2 131103Z 17003KT M02/M09 A3025 RMK A01 T10211085  RH  061%=      5-min Rain = 0
KHA2 131104Z 17003KT M02/M09 A3025 RMK A01 T10211085  RH  061%=      5-min Rain = 0
KHA2 131105Z 17003KT M02/M09 A3025 RMK A01 T10201085  RH  061%=      5-min Rain = 0
KHA2 131106Z 17003KT M02/M09 A3025 RMK A01 T10201086  RH  061%=      5-min Rain = 0
KHA2 131107Z 18003KT M02/M09 A3025 RMK A01 T10211086  RH  061%=      5-min Rain = 0
KHA2 131108Z 17004KT M02/M09 A3025 RMK A01 T10201086  RH  061%=      5-min Rain = 0
KHA2 131109Z 17003KT M02/M09 A3025 RMK A01 T10211086  RH  061%=      5-min Rain = 0
KHA2 131110Z 17003KT M02/M09 A3025 RMK A01 T10211086  RH  061%=      5-min Rain = 0
KHA2 131111Z 17003KT M02/M09 A3025 RMK A01 T10211086  RH  061%=      5-min Rain = 0
KHA2 131112Z 17003KT M02/M09 A3025 RMK A01 T10211086  RH  061%=      5-min Rain = 0
KHA2 131113Z 16003KT M02/M09 A3025 RMK A01 T10211086  RH  061%=      5-min Rain = 0
KHA2 131114Z 16002KT M02/M09 A3025 RMK A01 T10201085  RH  061%=      5-min Rain = 0
KHA2 131115Z 14003KT M02/M09 A3025 RMK A01 T10211085  RH  061%=      5-min Rain = 0
KHA2 131116Z 13002KT M02/M09 A3026 RMK A01 T10211085  RH  061%=      5-min Rain = 0
KHA2 131117Z 12002KT M02/M08 A3026 RMK A01 T10201083  RH  062%=      5-min Rain = 0
KHA2 131118Z 10002KT M02/M08 A3026 RMK A01 T10181078  RH  063%=      5-min Rain = 0
KHA2 131119Z 08002KT M02/M07 A3026 RMK A01 T10161074  RH  065%=      5-min Rain = 0
KHA2 131120Z 07003KT M01/M07 A3026 RMK A01 T10141072  RH  065%=      5-min Rain = 0
KHA2 131121Z 08003KT M01/M08 A3026 RMK A01 T10141075  RH  063%=      5-min Rain = 0
KHA2 131122Z 08004KT M02/M08 A3026 RMK A01 T10181081  RH  062%=      5-min Rain = 0
KHA2 131123Z 08004KT M02/M08 A3026 RMK A01 T10211084  RH  062%=      5-min Rain = 0
KHA2 131124Z 08004KT M02/M08 A3026 RMK A01 T10231084  RH  063%=      5-min Rain = 0
KHA2 131125Z 07004KT M02/M08 A3026 RMK A01 T10241083  RH  064%=      5-min Rain = 0
KHA2 131126Z 07004KT M03/M08 A3026 RMK A01 T10251084  RH  064%=      5-min Rain = 0
KHA2 131127Z 07004KT M03/M08 A3026 RMK A01 T10251084  RH  064%=      5-min Rain = 0
KHA2 131128Z 07004KT M03/M09 A3026 RMK A01 T10251085  RH  064%=      5-min Rain = 0
KHA2 131129Z 07004KT M03/M09 A3026 RMK A01 T10251086  RH  063%=      5-min Rain = 0
KHA2 131130Z 08004KT M03/M09 A3026 RMK A01 T10261087  RH  063%=      5-min Rain = 0
KHA2 131131Z 08004KT M03/M09 A3026 RMK A01 T10271087  RH  063%=      5-min Rain = 0
KHA2 131132Z 08004KT M03/M09 A3026 RMK A01 T10271086  RH  064%=      5-min Rain = 0
KHA2 131133Z 09004KT M03/M09 A3026 RMK A01 T10281087  RH  064%=      5-min Rain = 0
KHA2 131134Z 09004KT M03/M09 A3026 RMK A01 T10281089  RH  063%=      5-min Rain = 0
KHA2 131135Z 10004KT M03/M09 A3026 RMK A01 T10281087  RH  064%=      5-min Rain = 0
KHA2 131136Z 10004KT M03/M08 A3026 RMK A01 T10271082  RH  066%=      5-min Rain = 0
KHA2 131137Z 10005KT M03/M08 A3026 RMK A01 T10261079  RH  067%=      5-min Rain = 0
KHA2 131138Z 10005KT M02/M08 A3026 RMK A01 T10241075  RH  068%=      5-min Rain = 0
KHA2 131139Z 10005KT M02/M07 A3026 RMK A01 T10231074  RH  068%=      5-min Rain = 0
KHA2 131140Z 10005KT M02/M07 A3026 RMK A01 T10211074  RH  067%=      5-min Rain = 0
KHA2 131141Z 10005KT M02/M08 A3026 RMK A01 T10201076  RH  065%=      5-min Rain = 0
KHA2 131142Z 10005KT M02/M08 A3026 RMK A01 T10191077  RH  064%=      5-min Rain = 0
KHA2 131143Z 10005KT M02/M08 A3026 RMK A01 T10191078  RH  064%=      5-min Rain = 0
KHA2 131144Z 10005KT M02/M08 A3026 RMK A01 T10191079  RH  064%=      5-min Rain = 0
KHA2 131145Z 10005KT M02/M08 A3026 RMK A01 T10201079  RH  064%=      5-min Rain = 0
KHA2 131146Z 10005KT M02/M08 A3026 RMK A01 T10201080  RH  064%=      5-min Rain = 0
KHA2 131147Z 10005KT M02/M08 A3026 RMK A01 T10201081  RH  063%=      5-min Rain = 0
KHA2 131148Z 11005KT M02/M08 A3026 RMK A01 T10201083  RH  062%=      5-min Rain = 0
KHA2 131149Z 11005KT M02/M09 A3026 RMK A01 T10211089  RH  060%=      5-min Rain = 0
KHA2 131150Z 11004KT M02/M09 A3026 RMK A01 T10231094  RH  058%=      5-min Rain = 0
KHA2 131151Z 11004KT M02/M10 A3026 RMK A01 T10241096  RH  058%=      5-min Rain = 0
KHA2 131152Z 12004KT M03/M10 A3026 RMK A01 T10251097  RH  058%=      5-min Rain = 0
KHA2 131153Z 12004KT M03/M10 A3026 RMK A01 T10261097  RH  058%=      5-min Rain = 0
KHA2 131154Z 12004KT M03/M10 A3026 RMK A01 T10271097  RH  059%=      5-min Rain = 0
KHA2 131155Z 11005KT M03/M10 A3026 RMK A01 T10271096  RH  059%=      5-min Rain = 0
KHA2 131156Z 11005KT M03/M10 A3026 RMK A01 T10281095  RH  060%=      5-min Rain = 0
KHA2 131157Z 11006KT M03/M09 A3026 RMK A01 T10271093  RH  061%=      5-min Rain = 0
KHA2 131158Z 11006KT M03/M09 A3026 RMK A01 T10261089  RH  062%=      5-min Rain = 0
KHA2 131159Z 11006KT M02/M09 A3026 RMK A01 T10241086  RH  063%=      5-min Rain = 0
KHA2 131200Z 11006KT M02/M08 A3026 RMK A01 T10231084  RH  063%=      5-min Rain = 0
KHA2 131201Z 11006KT M02/M09 A3026 RMK A01 T10231085  RH  062%=      5-min Rain = 0
KHA2 131202Z 11006KT M02/M09 A3026 RMK A01 T10231085  RH  062%=      5-min Rain = 0
KHA2 131203Z 11006KT M02/M08 A3026 RMK A01 T10221084  RH  063%=      5-min Rain = 0
KHA2 131204Z 11006KT M02/M08 A3026 RMK A01 T10221082  RH  064%=      5-min Rain = 0
KHA2 131205Z 11005KT M02/M08 A3026 RMK A01 T10221081  RH  064%=      5-min Rain = 0
KHA2 131206Z 11005KT M02/M08 A3026 RMK A01 T10211081  RH  064%=      5-min Rain = 0
KHA2 131207Z 11005KT M02/M08 A3026 RMK A01 T10221084  RH  062%=      5-min Rain = 0
KHA2 131208Z 12005KT M02/M09 A3026 RMK A01 T10211087  RH  061%=      5-min Rain = 0
KHA2 131209Z 12005KT M02/M09 A3026 RMK A01 T10221088  RH  060%=      5-min Rain = 0
KHA2 131210Z 12005KT M02/M09 A3026 RMK A01 T10231089  RH  060%=      5-min Rain = 0
KHA2 131211Z 12005KT M02/M09 A3026 RMK A01 T10231089  RH  061%=      5-min Rain = 0
KHA2 131212Z 12005KT M02/M09 A3026 RMK A01 T10241089  RH  061%=      5-min Rain = 0
KHA2 131213Z 13005KT M02/M09 A3026 RMK A01 T10241088  RH  061%=      5-min Rain = 0
KHA2 131214Z 13005KT M02/M09 A3026 RMK A01 T10241087  RH  062%=      5-min Rain = 0
KHA2 131215Z 12005KT M02/M09 A3026 RMK A01 T10241087  RH  062%=      5-min Rain = 0
KHA2 131216Z 13005KT M02/M09 A3027 RMK A01 T10241087  RH  062%=      5-min Rain = 0
KHA2 131217Z 13005KT M02/M09 A3027 RMK A01 T10241086  RH  062%=      5-min Rain = 0
KHA2 131218Z 13005KT M02/M09 A3027 RMK A01 T10241086  RH  062%=      5-min Rain = 0
KHA2 131219Z 13005KT M03/M09 A3027 RMK A01 T10251086  RH  063%=      5-min Rain = 0
KHA2 131220Z 13005KT M03/M09 A3027 RMK A01 T10251086  RH  063%=      5-min Rain = 0
KHA2 131221Z 13005KT M03/M09 A3027 RMK A01 T10261085  RH  064%=      5-min Rain = 0
KHA2 131222Z 13005KT M03/M09 A3027 RMK A01 T10261085  RH  064%=      5-min Rain = 0
KHA2 131223Z 13005KT M03/M08 A3027 RMK A01 T10261084  RH  064%=      5-min Rain = 0
KHA2 131224Z 13005KT M03/M08 A3027 RMK A01 T10261082  RH  065%=      5-min Rain = 0
KHA2 131225Z 13005KT M02/M08 A3027 RMK A01 T10241080  RH  066%=      5-min Rain = 0
KHA2 131226Z 13005KT M02/M08 A3027 RMK A01 T10231079  RH  066%=      5-min Rain = 0
KHA2 131227Z 12005KT M02/M08 A3027 RMK A01 T10221078  RH  065%=      5-min Rain = 0
KHA2 131228Z 12005KT M02/M08 A3027 RMK A01 T10221078  RH  065%=      5-min Rain = 0
KHA2 131229Z 13004KT M02/M08 A3027 RMK A01 T10211078  RH  065%=      5-min Rain = 0
KHA2 131230Z 12004KT M02/M08 A3027 RMK A01 T10211078  RH  065%=      5-min Rain = 0
KHA2 131231Z 12004KT M02/M08 A3028 RMK A01 T10211078  RH  065%=      5-min Rain = 0
KHA2 131232Z 12004KT M02/M08 A3028 RMK A01 T10211078  RH  065%=      5-min Rain = 0
KHA2 131233Z 12004KT M02/M08 A3028 RMK A01 T10201078  RH  065%=      5-min Rain = 0
KHA2 131234Z 12003KT M02/M08 A3028 RMK A01 T10201078  RH  065%=      5-min Rain = 0
KHA2 131235Z 12003KT M02/M08 A3028 RMK A01 T10201077  RH  065%=      5-min Rain = 0
KHA2 131236Z 12003KT M02/M08 A3028 RMK A01 T10191077  RH  065%=      5-min Rain = 0
KHA2 131237Z 12003KT M02/M08 A3028 RMK A01 T10191076  RH  065%=      5-min Rain = 0
KHA2 131238Z 12003KT M02/M08 A3028 RMK A01 T10191076  RH  065%=      5-min Rain = 0
KHA2 131239Z 11003KT M02/M08 A3028 RMK A01 T10181075  RH  065%=      5-min Rain = 0
KHA2 131240Z 11003KT M02/M08 A3028 RMK A01 T10171075  RH  065%=      5-min Rain = 0
KHA2 131241Z 11002KT M02/M07 A3028 RMK A01 T10171074  RH  065%=      5-min Rain = 0
KHA2 131242Z 10003KT M02/M07 A3028 RMK A01 T10161074  RH  065%=      5-min Rain = 0
KHA2 131243Z 10003KT M02/M07 A3028 RMK A01 T10151071  RH  065%=      5-min Rain = 0
KHA2 131244Z 10002KT M01/M07 A3028 RMK A01 T10131069  RH  066%=      5-min Rain = 0
KHA2 131245Z 11003KT M01/M07 A3028 RMK A01 T10111067  RH  066%=      5-min Rain = 0
KHA2 131246Z 11003KT M01/M07 A3028 RMK A01 T10101066  RH  066%=      5-min Rain = 0
KHA2 131247Z 11003KT M01/M07 A3028 RMK A01 T10081066  RH  065%=      5-min Rain = 0
KHA2 131248Z 12003KT M01/M07 A3028 RMK A01 T10071069  RH  063%=      5-min Rain = 0
KHA2 131249Z 13003KT M01/M07 A3028 RMK A01 T10061071  RH  061%=      5-min Rain = 0
KHA2 131250Z 13003KT M01/M07 A3028 RMK A01 T10061072  RH  061%=      5-min Rain = 0
KHA2 131251Z 13003KT M01/M07 A3028 RMK A01 T10061072  RH  061%=      5-min Rain = 0
KHA2 131252Z 13003KT M01/M07 A3028 RMK A01 T10061072  RH  061%=      5-min Rain = 0
KHA2 131253Z 13004KT M01/M07 A3028 RMK A01 T10061071  RH  061%=      5-min Rain = 0
KHA2 131254Z 12004KT M01/M07 A3029 RMK A01 T10061071  RH  061%=      5-min Rain = 0
KHA2 131255Z 11004KT M01/M07 A3029 RMK A01 T10061071  RH  062%=      5-min Rain = 0
KHA2 131256Z 11004KT M01/M07 A3029 RMK A01 T10061071  RH  062%=      5-min Rain = 0
KHA2 131257Z 10004KT M01/M07 A3029 RMK A01 T10061070  RH  062%=      5-min Rain = 0
KHA2 131258Z 10004KT M01/M07 A3029 RMK A01 T10061068  RH  063%=      5-min Rain = 0
KHA2 131259Z 10004KT M01/M07 A3029 RMK A01 T10051068  RH  063%=      5-min Rain = 0
KHA2 131300Z 09004KT M01/M07 A3029 RMK A01 T10051069  RH  062%=      5-min Rain = 0
KHA2 131301Z 09003KT M00/M07 A3029 RMK A01 T10041069  RH  062%=      5-min Rain = 0
KHA2 131302Z 09003KT M00/M07 A3029 RMK A01 T10041068  RH  062%=      5-min Rain = 0
KHA2 131303Z 09004KT M00/M07 A3029 RMK A01 T10031068  RH  061%=      5-min Rain = 0
KHA2 131304Z 09004KT M00/M07 A3029 RMK A01 T10011068  RH  061%=      5-min Rain = 0
KHA2 131305Z 09004KT 00/07 A3029 RMK A01 T00-00-67  RH  061%=      5-min Rain = 0
KHA2 131306Z 09003KT 00/M07 A3029 RMK A01 T00011066  RH  061%=      5-min Rain = 0
KHA2 131307Z 10003KT 00/M06 A3029 RMK A01 T00011064  RH  062%=      5-min Rain = 0
KHA2 131308Z 10003KT 00/M06 A3029 RMK A01 T00011063  RH  062%=      5-min Rain = 0
KHA2 131309Z 10003KT 00/M06 A3029 RMK A01 T00011063  RH  062%=      5-min Rain = 0
KHA2 131310Z 11003KT 00/M06 A3029 RMK A01 T00011064  RH  061%=      5-min Rain = 0
KHA2 131311Z 11003KT 00/M07 A3029 RMK A01 T00021065  RH  061%=      5-min Rain = 0
KHA2 131312Z 11004KT 00/M07 A3029 RMK A01 T00021065  RH  061%=      5-min Rain = 0
KHA2 131313Z 11004KT 00/M06 A3029 RMK A01 T00031064  RH  061%=      5-min Rain = 0
KHA2 131314Z 10004KT 00/M06 A3029 RMK A01 T00041063  RH  061%=      5-min Rain = 0
KHA2 131315Z 11004KT 01/M06 A303 RMK A01 T00051063  RH  060%=      5-min Rain = 0
KHA2 131316Z 10004KT 01/M06 A3029 RMK A01 T00061063  RH  060%=      5-min Rain = 0
KHA2 131317Z 11004KT 01/M06 A3029 RMK A01 T00061064  RH  059%=      5-min Rain = 0
KHA2 131318Z 11004KT 01/M06 A3029 RMK A01 T00071064  RH  059%=      5-min Rain = 0
KHA2 131319Z 12004KT 01/M06 A3029 RMK A01 T00081063  RH  059%=      5-min Rain = 0
KHA2 131320Z 11005KT 01/M07 A3029 RMK A01 T00091065  RH  058%=      5-min Rain = 0
KHA2 131321Z 12004KT 01/M07 A3029 RMK A01 T00101066  RH  057%=      5-min Rain = 0
KHA2 131322Z 12004KT 01/M07 A3029 RMK A01 T00111067  RH  056%=      5-min Rain = 0
KHA2 131323Z 12004KT 01/M07 A3029 RMK A01 T00111067  RH  056%=      5-min Rain = 0
KHA2 131324Z 12004KT 01/M07 A3029 RMK A01 T00111066  RH  056%=      5-min Rain = 0
KHA2 131325Z 12003KT 01/M07 A3029 RMK A01 T00121066  RH  056%=      5-min Rain = 0
KHA2 131326Z 12004KT 01/M07 A3029 RMK A01 T00131065  RH  056%=      5-min Rain = 0
KHA2 131327Z 12004KT 01/M06 A3029 RMK A01 T00141064  RH  056%=      5-min Rain = 0
KHA2 131328Z 12005KT 02/M06 A3029 RMK A01 T00151064  RH  056%=      5-min Rain = 0
KHA2 131329Z 11005KT 02/M06 A3029 RMK A01 T00161064  RH  055%=      5-min Rain = 0
KHA2 131330Z 11005KT 02/M06 A303 RMK A01 T00161064  RH  055%=      5-min Rain = 0
KHA2 131331Z 11005KT 02/M06 A303 RMK A01 T00171064  RH  055%=      5-min Rain = 0
KHA2 131332Z 11005KT 02/M06 A303 RMK A01 T00171064  RH  055%=      5-min Rain = 0
KHA2 131333Z 11004KT 02/M06 A303 RMK A01 T00171063  RH  055%=      5-min Rain = 0
KHA2 131334Z 12004KT 02/M06 A303 RMK A01 T00171064  RH  055%=      5-min Rain = 0
KHA2 131335Z 12004KT 02/M06 A303 RMK A01 T00171064  RH  055%=      5-min Rain = 0
KHA2 131336Z 12004KT 02/M06 A303 RMK A01 T00171064  RH  055%=      5-min Rain = 0
KHA2 131337Z 11005KT 02/M06 A303 RMK A01 T00181063  RH  055%=      5-min Rain = 0
KHA2 131338Z 11005KT 02/M06 A303 RMK A01 T00181063  RH  055%=      5-min Rain = 0
KHA2 131339Z 12005KT 02/M06 A303 RMK A01 T00191062  RH  055%=      5-min Rain = 0
KHA2 131340Z 12005KT 02/M06 A303 RMK A01 T00191063  RH  055%=      5-min Rain = 0
KHA2 131341Z 13006KT 02/M06 A303 RMK A01 T00201062  RH  055%=      5-min Rain = 0
KHA2 131342Z 14005KT 02/M06 A303 RMK A01 T00201062  RH  055%=      5-min Rain = 0
KHA2 131343Z 13006KT 02/M06 A303 RMK A01 T00201062  RH  055%=      5-min Rain = 0
KHA2 131344Z 12005KT 02/M06 A303 RMK A01 T00201062  RH  055%=      5-min Rain = 0
KHA2 131345Z 13004KT 02/M06 A303 RMK A01 T00211061  RH  055%=      5-min Rain = 0
KHA2 131346Z 13004KT 02/M06 A303 RMK A01 T00221060  RH  055%=      5-min Rain = 0
KHA2 131347Z 13004KT 02/M06 A3031 RMK A01 T00231060  RH  054%=      5-min Rain = 0
KHA2 131348Z 13004KT 02/M06 A3031 RMK A01 T00231060  RH  054%=      5-min Rain = 0
KHA2 131349Z 13004KT 03/M06 A3031 RMK A01 T00251058  RH  054%=      5-min Rain = 0
KHA2 131350Z 12005KT 03/M06 A3031 RMK A01 T00271057  RH  054%=      5-min Rain = 0
KHA2 131351Z 12005KT 03/M06 A3031 RMK A01 T00281057  RH  053%=      5-min Rain = 0
KHA2 131352Z 12006KT 03/M06 A3031 RMK A01 T00291057  RH  053%=      5-min Rain = 0
KHA2 131353Z 12007KT 03/M06 A3031 RMK A01 T00301058  RH  052%=      5-min Rain = 0
KHA2 131354Z 12006KT 03/M06 A3031 RMK A01 T00301059  RH  052%=      5-min Rain = 0
KHA2 131355Z 12006KT 03/M06 A3031 RMK A01 T00301060  RH  052%=      5-min Rain = 0
KHA2 131356Z 12006KT 03/M06 A3031 RMK A01 T00301060  RH  052%=      5-min Rain = 0
KHA2 131357Z 12006KT 03/M06 A3031 RMK A01 T00301059  RH  052%=      5-min Rain = 0
KHA2 131358Z 13005KT 03/M06 A3031 RMK A01 T00301060  RH  052%=      5-min Rain = 0
KHA2 131359Z 11007KT 03/M06 A3031 RMK A01 T00301059  RH  052%=      5-min Rain = 0
KHA2 131400Z 12006KT 03/M06 A3031 RMK A01 T00311060  RH  051%=      5-min Rain = 0
KHA2 131401Z 11006KT 03/M06 A3031 RMK A01 T00311059  RH  052%=      5-min Rain = 0
KHA2 131402Z 11007KT 03/M06 A3031 RMK A01 T00321058  RH  052%=      5-min Rain = 0
KHA2 131403Z 11007KT 03/M06 A3031 RMK A01 T00331056  RH  052%=      5-min Rain = 0
KHA2 131404Z 11007KT 03/M06 A3031 RMK A01 T00341057  RH  051%=      5-min Rain = 0
KHA2 131405Z 11007KT 04/M06 A3031 RMK A01 T00351058  RH  051%=      5-min Rain = 0
KHA2 131406Z 12006KT 04/M06 A3031 RMK A01 T00351059  RH  050%=      5-min Rain = 0
KHA2 131407Z 12007KT 04/M06 A3031 RMK A01 T00361059  RH  050%=      5-min Rain = 0
KHA2 131408Z 11007KT 04/M06 A3032 RMK A01 T00361059  RH  050%=      5-min Rain = 0
KHA2 131409Z 11008KT 04/M06 A3032 RMK A01 T00371057  RH  050%=      5-min Rain = 0
KHA2 131410Z 12007KT 04/M06 A3032 RMK A01 T00381057  RH  050%=      5-min Rain = 0
KHA2 131411Z 12007KT 04/M06 A3032 RMK A01 T00381058  RH  050%=      5-min Rain = 0
KHA2 131412Z 12006KT 04/M06 A3032 RMK A01 T00371058  RH  050%=      5-min Rain = 0
KHA2 131413Z 12007KT 04/M06 A3032 RMK A01 T00391057  RH  050%=      5-min Rain = 0
KHA2 131414Z 11007KT 04/M06 A3032 RMK A01 T00391057  RH  049%=      5-min Rain = 0
KHA2 131415Z 12006KT 04/M06 A3032 RMK A01 T00391057  RH  049%=      5-min Rain = 0
KHA2 131416Z 12007KT 04/M06 A3032 RMK A01 T00391058  RH  049%=      5-min Rain = 0
KHA2 131417Z 12005KT 04/M06 A3032 RMK A01 T00391058  RH  049%=      5-min Rain = 0
KHA2 131418Z 12005KT 04/M06 A3032 RMK A01 T00391057  RH  050%=      5-min Rain = 0
KHA2 131419Z 12005KT 04/M06 A3032 RMK A01 T00401056  RH  050%=      5-min Rain = 0
KHA2 131420Z 11007KT 04/M06 A3032 RMK A01 T00401056  RH  050%=      5-min Rain = 0
KHA2 131421Z 10007KT 04/M06 A3032 RMK A01 T00401055  RH  050%=      5-min Rain = 0
KHA2 131422Z 10007KT 04/M05 A3032 RMK A01 T00391053  RH  051%=      5-min Rain = 0
KHA2 131423Z 09006KT 04/M05 A3032 RMK A01 T00391053  RH  051%=      5-min Rain = 0
KHA2 131424Z 09007KT 04/M05 A3032 RMK A01 T00391053  RH  051%=      5-min Rain = 0
KHA2 131425Z 11007KT 04/M05 A3032 RMK A01 T00391054  RH  051%=      5-min Rain = 0
KHA2 131426Z 11008KT 04/M06 A3032 RMK A01 T00391056  RH  050%=      5-min Rain = 0
KHA2 131427Z 11008KT 04/M06 A3032 RMK A01 T00391057  RH  049%=      5-min Rain = 0
KHA2 131428Z 11008KT 04/M06 A3032 RMK A01 T00401057  RH  049%=      5-min Rain = 0
KHA2 131429Z 10009KT 04/M06 A3032 RMK A01 T00401056  RH  050%=      5-min Rain = 0
KHA2 131430Z 11007KT 04/M06 A3032 RMK A01 T00401056  RH  050%=      5-min Rain = 0
KHA2 131431Z 10007KT 04/M06 A3032 RMK A01 T00401055  RH  050%=      5-min Rain = 0
KHA2 131432Z 10008KT 04/M05 A3032 RMK A01 T00401053  RH  051%=      5-min Rain = 0
KHA2 131433Z 11007KT 04/M05 A3032 RMK A01 T00401054  RH  050%=      5-min Rain = 0
KHA2 131434Z 11007KT 04/M06 A3032 RMK A01 T00391055  RH  050%=      5-min Rain = 0
KHA2 131435Z 10008KT 04/M06 A3032 RMK A01 T00391055  RH  050%=      5-min Rain = 0
KHA2 131436Z 10009KT 04/M05 A3032 RMK A01 T00391054  RH  050%=      5-min Rain = 0
KHA2 131437Z 11007KT 04/M06 A3032 RMK A01 T00391055  RH  050%=      5-min Rain = 0
KHA2 131438Z 11008KT 04/M06 A3032 RMK A01 T00391055  RH  050%=      5-min Rain = 0
KHA2 131439Z 10009KT 04/M06 A3032 RMK A01 T00391055  RH  050%=      5-min Rain = 0
KHA2 131440Z 11009KT 04/M06 A3032 RMK A01 T00391055  RH  050%=      5-min Rain = 0
KHA2 131441Z 11009KT 04/M06 A3033 RMK A01 T00391056  RH  050%=      5-min Rain = 0
KHA2 131442Z 10009KT 04/M06 A3033 RMK A01 T00391056  RH  050%=      5-min Rain = 0
KHA2 131443Z 11007KT 04/M06 A3033 RMK A01 T00391056  RH  050%=      5-min Rain = 0
KHA2 131444Z 11009KT 04/M06 A3033 RMK A01 T00391056  RH  050%=      5-min Rain = 0
KHA2 131445Z 10008KT 04/M06 A3033 RMK A01 T00401057  RH  049%=      5-min Rain = 0
KHA2 131446Z 10007KT 04/M06 A3033 RMK A01 T00401055  RH  050%=      5-min Rain = 0
KHA2 131447Z 11007KT 04/M06 A3033 RMK A01 T00401056  RH  050%=      5-min Rain = 0
KHA2 131448Z 11007KT 04/M06 A3033 RMK A01 T00411057  RH  049%=      5-min Rain = 0
KHA2 131449Z 11007KT 04/M06 A3033 RMK A01 T00411059  RH  048%=      5-min Rain = 0
KHA2 131450Z 12008KT 04/M06 A3033 RMK A01 T00411057  RH  049%=      5-min Rain = 0
KHA2 131451Z 12008KT 04/M06 A3033 RMK A01 T00421057  RH  048%=      5-min Rain = 0
KHA2 131452Z 12008KT 04/M06 A3033 RMK A01 T00441056  RH  048%=      5-min Rain = 0
KHA2 131453Z 11008KT 05/M06 A3033 RMK A01 T00451056  RH  048%=      5-min Rain = 0
KHA2 131454Z 11009KT 05/M06 A3033 RMK A01 T00461056  RH  048%=      5-min Rain = 0
KHA2 131455Z 11009KT 05/M06 A3033 RMK A01 T00461056  RH  047%=      5-min Rain = 0
KHA2 131456Z 11008KT 04/M06 A3033 RMK A01 T00441058  RH  047%=      5-min Rain = 0
KHA2 131457Z 11010KT 05/M06 A3033 RMK A01 T00451057  RH  048%=      5-min Rain = 0
KHA2 131458Z 11009KT 05/M06 A3033 RMK A01 T00451057  RH  048%=      5-min Rain = 0
KHA2 131459Z 12010KT 05/M06 A3033 RMK A01 T00451057  RH  047%=      5-min Rain = 0
KHA2 131500Z 12010KT 05/M06 A3033 RMK A01 T00451057  RH  047%=      5-min Rain = 0
KHA2 131501Z 12010KT 05/M06 A3033 RMK A01 T00461057  RH  047%=      5-min Rain = 0
KHA2 131502Z 12009KT 05/M06 A3033 RMK A01 T00471056  RH  047%=      5-min Rain = 0
KHA2 131503Z 12011KT 05/M06 A3033 RMK A01 T00471057  RH  047%=      5-min Rain = 0
KHA2 131504Z 12011KT 05/M06 A3033 RMK A01 T00471057  RH  047%=      5-min Rain = 0
KHA2 131505Z 12010KT 05/M06 A3033 RMK A01 T00481057  RH  047%=      5-min Rain = 0
KHA2 131506Z 13010KT 05/M06 A3033 RMK A01 T00481056  RH  047%=      5-min Rain = 0
KHA2 131507Z 13010KT 05/M06 A3033 RMK A01 T00481056  RH  047%=      5-min Rain = 0
KHA2 131508Z 13011KT 05/M06 A3033 RMK A01 T00491056  RH  047%=      5-min Rain = 0
KHA2 131509Z 12009KT 05/M06 A3033 RMK A01 T00491056  RH  046%=      5-min Rain = 0
KHA2 131510Z 12010KT 05/M06 A3033 RMK A01 T00501055  RH  046%=      5-min Rain = 0
KHA2 131511Z 12010KT 05/M06 A3033 RMK A01 T00511055  RH  046%=      5-min Rain = 0
KHA2 131512Z 12009KT 05/M06 A3034 RMK A01 T00531055  RH  046%=      5-min Rain = 0
KHA2 131513Z 12008KT 05/M05 A3034 RMK A01 T00541054  RH  046%=      5-min Rain = 0
KHA2 131514Z 13010KT 06/M06 A3034 RMK A01 T00551055  RH  045%=      5-min Rain = 0
KHA2 131515Z 12010KT 06/M06 A3034 RMK A01 T00551055  RH  045%=      5-min Rain = 0
KHA2 131516Z 11010KT 05/M06 A3034 RMK A01 T00541056  RH  045%=      5-min Rain = 0
KHA2 131517Z 12010KT 06/M05 A3034 RMK A01 T00551054  RH  045%=      5-min Rain = 0
KHA2 131518Z 12009KT 06/M05 A3034 RMK A01 T00561054  RH  045%=      5-min Rain = 0
KHA2 131519Z 13008KT 06/M06 A3034 RMK A01 T00561055  RH  045%=      5-min Rain = 0
KHA2 131520Z 12010KT 06/M05 A3034 RMK A01 T00581053  RH  045%=      5-min Rain = 0
KHA2 131521Z 11009KT 06/M06 A3034 RMK A01 T00581055  RH  044%=      5-min Rain = 0
KHA2 131522Z 12010KT 06/M06 A3034 RMK A01 T00581055  RH  044%=      5-min Rain = 0
KHA2 131523Z 12010KT 06/M06 A3033 RMK A01 T00581055  RH  044%=      5-min Rain = 0
KHA2 131524Z 13008KT 06/M05 A3034 RMK A01 T00591054  RH  044%=      5-min Rain = 0
KHA2 131525Z 14008KT 06/M05 A3034 RMK A01 T00611054  RH  044%=      5-min Rain = 0
KHA2 131526Z 13009KT 06/M06 A3034 RMK A01 T00611055  RH  043%=      5-min Rain = 0
KHA2 131527Z 12012KT 06/M06 A3034 RMK A01 T00621055  RH  043%=      5-min Rain = 0
KHA2 131528Z 12011KT 06/M06 A3033 RMK A01 T00611055  RH  043%=      5-min Rain = 0
KHA2 131529Z 12010KT 06/M06 A3034 RMK A01 T00611055  RH  043%=      5-min Rain = 0
KHA2 131530Z 13010KT 06/M05 A3034 RMK A01 T00621054  RH  043%=      5-min Rain = 0
KHA2 131531Z 12011KT 06/M05 A3034 RMK A01 T00631054  RH  043%=      5-min Rain = 0
KHA2 131532Z 13011KT 06/M06 A3033 RMK A01 T00631055  RH  043%=      5-min Rain = 0
KHA2 131533Z 13010KT 06/M05 A3034 RMK A01 T00641053  RH  043%=      5-min Rain = 0
KHA2 131534Z 13012KT 07/M05 A3034 RMK A01 T00651054  RH  042%=      5-min Rain = 0
KHA2 131535Z 13011KT 06/M06 A3034 RMK A01 T00641055  RH  042%=      5-min Rain = 0
KHA2 131536Z 14012KT 07/M06 A3034 RMK A01 T00651055  RH  042%=      5-min Rain = 0
KHA2 131537Z 13011KT 07/M06 A3034 RMK A01 T00651055  RH  042%=      5-min Rain = 0
KHA2 131538Z 13012KT 07/M05 A3034 RMK A01 T00651054  RH  042%=      5-min Rain = 0
KHA2 131539Z 13011KT 07/M05 A3034 RMK A01 T00671054  RH  042%=      5-min Rain = 0
KHA2 131540Z 14010KT 07/M05 A3034 RMK A01 T00671054  RH  042%=      5-min Rain = 0
KHA2 131541Z 13013KT 07/M05 A3034 RMK A01 T00681054  RH  041%=      5-min Rain = 0
KHA2 131542Z 14012KT 07/M06 A3034 RMK A01 T00681055  RH  041%=      5-min Rain = 0
KHA2 131543Z 14010KT 07/M06 A3034 RMK A01 T00671056  RH  041%=      5-min Rain = 0
KHA2 131544Z 13012KT 07/M05 A3034 RMK A01 T00671054  RH  042%=      5-min Rain = 0
KHA2 131545Z 14010KT 07/M05 A3034 RMK A01 T00681054  RH  041%=      5-min Rain = 0
KHA2 131546Z 13012KT 07/M05 A3034 RMK A01 T00691054  RH  041%=      5-min Rain = 0
KHA2 131547Z 14012KT 07/M05 A3034 RMK A01 T00691054  RH  041%=      5-min Rain = 0
KHA2 131548Z 15010KT 07/M06 A3034 RMK A01 T00691055  RH  041%=      5-min Rain = 0
KHA2 131549Z 14009KT 07/M05 A3034 RMK A01 T00691054  RH  041%=      5-min Rain = 0
KHA2 131550Z 15011KT 07/M05 A3034 RMK A01 T00721051  RH  041%=      5-min Rain = 0
KHA2 131551Z 15012KT 08/M05 A3034 RMK A01 T00751052  RH  040%=      5-min Rain = 0
KHA2 131552Z 13011KT 07/M06 A3034 RMK A01 T00731055  RH  040%=      5-min Rain = 0
KHA2 131553Z 13010KT 07/M05 A3034 RMK A01 T00731054  RH  040%=      5-min Rain = 0
KHA2 131554Z 14011KT 08/M05 A3034 RMK A01 T00751052  RH  040%=      5-min Rain = 0
KHA2 131555Z 14013KT 08/M06 A3034 RMK A01 T00751055  RH  039%=      5-min Rain = 0
KHA2 131556Z 13012KT 07/M06 A3033 RMK A01 T00711057  RH  040%=      5-min Rain = 0
KHA2 131557Z 13009KT 07/M06 A3033 RMK A01 T00701056  RH  040%=      5-min Rain = 0
KHA2 131558Z 14013KT 07/M05 A3033 RMK A01 T00701054  RH  041%=      5-min Rain = 0
KHA2 131559Z 14013KT 07/M05 A3033 RMK A01 T00721054  RH  040%=      5-min Rain = 0
KHA2 131600Z 14011KT 07/M06 A3033 RMK A01 T00721055  RH  040%=      5-min Rain = 0
KHA2 131601Z 13013KT 07/M05 A3033 RMK A01 T00741054  RH  040%=      5-min Rain = 0
KHA2 131602Z 14012KT 08/M05 A3033 RMK A01 T00751054  RH  040%=      5-min Rain = 0
KHA2 131603Z 14013KT 08/M05 A3033 RMK A01 T00771053  RH  039%=      5-min Rain = 0
KHA2 131604Z 14013KT 08/M05 A3034 RMK A01 T00781054  RH  039%=      5-min Rain = 0
KHA2 131605Z 14010KT 08/M05 A3034 RMK A01 T00791054  RH  039%=      5-min Rain = 0
KHA2 131606Z 13012KT 08/M05 A3034 RMK A01 T00811052  RH  038%=      5-min Rain = 0
KHA2 131607Z 14014KT 08/M05 A3034 RMK A01 T00821053  RH  038%=      5-min Rain = 0
KHA2 131608Z 14012KT 08/M06 A3034 RMK A01 T00801055  RH  038%=      5-min Rain = 0
KHA2 131609Z 15012KT 08/M05 A3034 RMK A01 T00801054  RH  038%=      5-min Rain = 0
KHA2 131610Z 16012KT 08/M05 A3034 RMK A01 T00811054  RH  038%=      5-min Rain = 0
KHA2 131611Z 14012KT 08/M05 A3034 RMK A01 T00801054  RH  038%=      5-min Rain = 0
KHA2 131612Z 14014KT 08/M05 A3034 RMK A01 T00821053  RH  038%=      5-min Rain = 0
KHA2 131613Z 14013KT 08/M06 A3034 RMK A01 T00811055  RH  038%=      5-min Rain = 0
KHA2 131614Z 13014KT 08/M06 A3034 RMK A01 T00801055  RH  038%=      5-min Rain = 0
KHA2 131615Z 13014KT 08/M06 A3034 RMK A01 T00811055  RH  038%=      5-min Rain = 0
KHA2 131616Z 14015KT 08/M06 A3034 RMK A01 T00821055  RH  037%=      5-min Rain = 0
KHA2 131617Z 14011KT 08/M06 A3034 RMK A01 T00791058  RH  038%=      5-min Rain = 0
KHA2 131618Z 15012KT 08/M06 A3034 RMK A01 T00791055  RH  038%=      5-min Rain = 0
KHA2 131619Z 14012KT 08/M06 A3034 RMK A01 T00801055  RH  038%=      5-min Rain = 0
KHA2 131620Z 14012KT 08/M06 A3034 RMK A01 T00811055  RH  038%=      5-min Rain = 0
KHA2 131621Z 14011KT 08/M06 A3034 RMK A01 T00791057  RH  038%=      5-min Rain = 0
KHA2 131622Z 14013KT 08/M06 A3034 RMK A01 T00781056  RH  038%=      5-min Rain = 0
KHA2 131623Z 16011KT 08/M06 A3034 RMK A01 T00791055  RH  038%=      5-min Rain = 0
KHA2 131624Z 16010KT 08/M06 A3034 RMK A01 T00791055  RH  038%=      5-min Rain = 0
KHA2 131625Z 14013KT 08/M06 A3034 RMK A01 T00791055  RH  038%=      5-min Rain = 0
KHA2 131626Z 14011KT 08/M06 A3035 RMK A01 T00791055  RH  038%=      5-min Rain = 0
KHA2 131627Z 13011KT 08/M06 A3035 RMK A01 T00771057  RH  038%=      5-min Rain = 0
KHA2 131628Z 13011KT 08/M06 A3035 RMK A01 T00771055  RH  039%=      5-min Rain = 0
KHA2 131629Z 12013KT 08/M05 A3035 RMK A01 T00801053  RH  038%=      5-min Rain = 0
KHA2 131630Z 13012KT 08/M06 A3035 RMK A01 T00791055  RH  038%=      5-min Rain = 0
KHA2 131631Z 13010KT 08/M06 A3035 RMK A01 T00781055  RH  038%=      5-min Rain = 0
KHA2 131632Z 15011KT 08/M05 A3035 RMK A01 T00801053  RH  039%=      5-min Rain = 0
KHA2 131633Z 15009KT 08/M05 A3035 RMK A01 T00821051  RH  038%=      5-min Rain = 0
KHA2 131634Z 14009KT 09/M05 A3035 RMK A01 T00851051  RH  038%=      5-min Rain = 0
KHA2 131635Z 13010KT 09/M05 A3034 RMK A01 T00861051  RH  037%=      5-min Rain = 0
KHA2 131636Z 14009KT 09/M05 A3034 RMK A01 T00861052  RH  037%=      5-min Rain = 0
KHA2 131637Z 15010KT 09/M05 A3034 RMK A01 T00871052  RH  037%=      5-min Rain = 0
KHA2 131638Z 13010KT 09/M05 A3034 RMK A01 T00861053  RH  037%=      5-min Rain = 0
KHA2 131639Z 12011KT 09/M05 A3034 RMK A01 T00861053  RH  037%=      5-min Rain = 0
KHA2 131640Z 13010KT 09/M05 A3034 RMK A01 T00871051  RH  037%=      5-min Rain = 0
KHA2 131641Z 14011KT 09/M05 A3034 RMK A01 T00901051  RH  037%=      5-min Rain = 0
KHA2 131642Z 13009KT 09/M06 A3034 RMK A01 T00871055  RH  036%=      5-min Rain = 0
KHA2 131643Z 14009G14KT 09/M05 A3034 RMK A01 T00851054  RH  037%=      5-min Rain = 0
KHA2 131644Z 14012KT 09/M05 A3035 RMK A01 T00861053  RH  037%=      5-min Rain = 0
KHA2 131645Z 13011KT 09/M05 A3035 RMK A01 T00871053  RH  037%=      5-min Rain = 0
KHA2 131646Z 13009KT 09/M05 A3035 RMK A01 T00861053  RH  037%=      5-min Rain = 0
KHA2 131647Z 14011KT 09/M05 A3035 RMK A01 T00851054  RH  037%=      5-min Rain = 0
KHA2 131648Z 13011KT 09/M05 A3035 RMK A01 T00861052  RH  037%=      5-min Rain = 0
KHA2 131649Z 13009KT 09/M05 A3035 RMK A01 T00871053  RH  037%=      5-min Rain = 0
KHA2 131650Z 13009KT 09/M05 A3035 RMK A01 T00861053  RH  037%=      5-min Rain = 0
KHA2 131651Z 13012KT 09/M05 A3035 RMK A01 T00851054  RH  037%=      5-min Rain = 0
KHA2 131652Z 15009KT 09/M05 A3035 RMK A01 T00871051  RH  037%=      5-min Rain = 0
KHA2 131653Z 15011KT 09/M05 A3035 RMK A01 T00921048  RH  037%=      5-min Rain = 0
KHA2 131654Z 14008KT 09/M05 A3035 RMK A01 T00941050  RH  036%=      5-min Rain = 0
KHA2 131655Z 14009KT 10/M05 A3035 RMK A01 T00971047  RH  036%=      5-min Rain = 0
KHA2 131656Z 16011KT 10/M05 A3035 RMK A01 T01031046  RH  035%=      5-min Rain = 0
KHA2 131657Z 16009KT 10/M05 A3035 RMK A01 T01001053  RH  034%=      5-min Rain = 0
KHA2 131658Z 16010KT 10/M05 A3035 RMK A01 T00961052  RH  035%=      5-min Rain = 0
KHA2 131659Z 14010KT 10/M05 A3035 RMK A01 T00971052  RH  035%=      5-min Rain = 0
KHA2 131700Z 12009KT 10/M05 A3035 RMK A01 T00951053  RH  035%=      5-min Rain = 0
KHA2 131701Z 12013KT 09/M05 A3035 RMK A01 T00941052  RH  035%=      5-min Rain = 0
KHA2 131702Z 13013KT 10/M05 A3035 RMK A01 T00971050  RH  035%=      5-min Rain = 0
KHA2 131703Z 13011KT 10/M05 A3035 RMK A01 T00961053  RH  035%=      5-min Rain = 0
KHA2 131704Z 12010KT 09/M05 A3035 RMK A01 T00931054  RH  035%=      5-min Rain = 0
KHA2 131705Z 12011KT 09/M05 A3035 RMK A01 T00921053  RH  036%=      5-min Rain = 0
KHA2 131706Z 11007KT 09/M05 A3035 RMK A01 T00931052  RH  036%=      5-min Rain = 0
KHA2 131707Z 11011KT 09/M05 A3035 RMK A01 T00931049  RH  036%=      5-min Rain = 0
KHA2 131708Z 11008KT 10/M05 A3035 RMK A01 T00961049  RH  036%=      5-min Rain = 0
KHA2 131709Z 14011KT 10/M05 A3035 RMK A01 T00951050  RH  036%=      5-min Rain = 0
KHA2 131710Z 13012KT 10/M05 A3035 RMK A01 T00991048  RH  035%=      5-min Rain = 0
KHA2 131711Z 12014KT 10/M05 A3035 RMK A01 T01021048  RH  034%=      5-min Rain = 0
KHA2 131712Z 13011KT 10/M05 A3035 RMK A01 T01041048  RH  034%=      5-min Rain = 0
KHA2 131713Z 12009KT 11/M05 A3035 RMK A01 T01071047  RH  033%=      5-min Rain = 0
KHA2 131714Z 11008KT 10/M05 A3035 RMK A01 T01041051  RH  033%=      5-min Rain = 0
KHA2 131715Z 12008KT 10/M05 A3035 RMK A01 T00991052  RH  034%=      5-min Rain = 0
KHA2 131716Z 14010KT 10/M05 A3035 RMK A01 T01031047  RH  035%=      5-min Rain = 0
KHA2 131717Z 14009KT 10/M05 A3035 RMK A01 T01031050  RH  034%=      5-min Rain = 0
KHA2 131718Z 13007KT 10/M05 A3035 RMK A01 T01021051  RH  034%=      5-min Rain = 0
KHA2 131719Z 11009KT 10/M05 A3035 RMK A01 T01001052  RH  034%=      5-min Rain = 0
KHA2 131720Z 13010KT 10/M05 A3035 RMK A01 T01021047  RH  035%=      5-min Rain = 0
KHA2 131721Z 15011KT 11/M05 A3035 RMK A01 T01051048  RH  034%=      5-min Rain = 0
KHA2 131722Z 15008G14KT 10/M05 A3035 RMK A01 T01001054  RH  033%=      5-min Rain = 0
KHA2 131723Z 15012G17KT 10/M05 A3035 RMK A01 T01001051  RH  034%=      5-min Rain = 0
KHA2 131724Z 15009KT 10/M05 A3035 RMK A01 T01001051  RH  034%=      5-min Rain = 0
KHA2 131725Z 14010KT 10/M05 A3035 RMK A01 T01001050  RH  034%=      5-min Rain = 0
KHA2 131726Z 13011KT 10/M05 A3034 RMK A01 T01011050  RH  034%=      5-min Rain = 0
KHA2 131727Z 13007KT 10/M05 A3034 RMK A01 T01011049  RH  034%=      5-min Rain = 0
KHA2 131728Z 15013KT 11/M05 A3034 RMK A01 T01061047  RH  034%=      5-min Rain = 0
KHA2 131729Z 13011KT 11/M05 A3034 RMK A01 T01051050  RH  033%=      5-min Rain = 0
KHA2 131730Z 12010KT 11/M05 A3034 RMK A01 T01091046  RH  033%=      5-min Rain = 0
KHA2 131731Z 10011KT 11/M05 A3034 RMK A01 T01111047  RH  033%=      5-min Rain = 0
KHA2 131732Z 13007KT 11/M05 A3034 RMK A01 T01111046  RH  033%=      5-min Rain = 0
KHA2 131733Z 13011G16KT 11/M05 A3034 RMK A01 T01141046  RH  032%=      5-min Rain = 0
KHA2 131734Z 13014KT 11/M05 A3034 RMK A01 T01141048  RH  032%=      5-min Rain = 0
KHA2 131735Z 13012KT 11/M05 A3034 RMK A01 T01121050  RH  032%=      5-min Rain = 0
KHA2 131736Z 12011KT 11/M05 A3034 RMK A01 T01101050  RH  032%=      5-min Rain = 0
KHA2 131737Z 12010KT 11/M05 A3034 RMK A01 T01091049  RH  032%=      5-min Rain = 0
KHA2 131738Z 11010KT 11/M05 A3034 RMK A01 T01101049  RH  033%=      5-min Rain = 0
KHA2 131739Z 12009KT 11/M05 A3034 RMK A01 T01101048  RH  033%=      5-min Rain = 0
KHA2 131740Z 12008KT 11/M05 A3034 RMK A01 T01111048  RH  033%=      5-min Rain = 0
KHA2 131741Z 14010KT 12/M04 A3034 RMK A01 T01151044  RH  033%=      5-min Rain = 0
KHA2 131742Z 15010KT 12/M05 A3034 RMK A01 T01181048  RH  031%=      5-min Rain = 0
KHA2 131743Z 13009G14KT 11/M05 A3034 RMK A01 T01121051  RH  031%=      5-min Rain = 0
KHA2 131744Z 13012KT 11/M05 A3034 RMK A01 T01141049  RH  032%=      5-min Rain = 0
KHA2 131745Z 14007KT 11/M05 A3034 RMK A01 T01111051  RH  032%=      5-min Rain = 0
KHA2 131746Z 15008KT 11/M05 A3033 RMK A01 T01101050  RH  032%=      5-min Rain = 0
KHA2 131747Z 15009KT 11/M05 A3033 RMK A01 T01091050  RH  032%=      5-min Rain = 0
KHA2 131748Z 11010KT 11/M05 A3033 RMK A01 T01111049  RH  032%=      5-min Rain = 0
KHA2 131749Z 11007KT 11/M05 A3033 RMK A01 T01121046  RH  033%=      5-min Rain = 0
KHA2 131750Z 14009G15KT 11/M05 A3033 RMK A01 T01131046  RH  032%=      5-min Rain = 0
KHA2 131751Z 14010KT 12/M05 A3033 RMK A01 T01151048  RH  032%=      5-min Rain = 0
KHA2 131752Z 12009KT 11/M05 A3033 RMK A01 T01121051  RH  032%=      5-min Rain = 0
KHA2 131753Z 13009KT 11/M05 A3033 RMK A01 T01111049  RH  032%=      5-min Rain = 0
KHA2 131754Z 12006KT 11/M05 A3033 RMK A01 T01101050  RH  032%=      5-min Rain = 0
KHA2 131755Z 12013KT 11/M05 A3033 RMK A01 T01121047  RH  032%=      5-min Rain = 0
KHA2 131756Z 13010KT 11/M05 A3033 RMK A01 T01111050  RH  032%=      5-min Rain = 0
KHA2 131757Z 13009KT 11/M05 A3033 RMK A01 T01111050  RH  032%=      5-min Rain = 0
KHA2 131758Z 12009KT 11/M05 A3033 RMK A01 T01111050  RH  032%=      5-min Rain = 0
KHA2 131759Z 11010KT 11/M05 A3033 RMK A01 T01121048  RH  032%=      5-min Rain = 0
KHA2 131800Z 11008KT 11/M05 A3033 RMK A01 T01111049  RH  032%=      5-min Rain = 0
KHA2 131801Z 14012KT 11/M05 A3033 RMK A01 T01131047  RH  032%=      5-min Rain = 0
KHA2 131802Z 15010KT 12/M05 A3033 RMK A01 T01151048  RH  032%=      5-min Rain = 0
KHA2 131803Z 15010KT 12/M05 A3033 RMK A01 T01161049  RH  031%=      5-min Rain = 0
KHA2 131804Z 13012KT 12/M05 A3033 RMK A01 T01181048  RH  031%=      5-min Rain = 0
KHA2 131805Z 13009KT 12/M05 A3033 RMK A01 T01181049  RH  031%=      5-min Rain = 0
KHA2 131806Z 12006KT 11/M05 A3033 RMK A01 T01141052  RH  031%=      5-min Rain = 0
KHA2 131807Z 12008KT 11/M05 A3033 RMK A01 T01121051  RH  031%=      5-min Rain = 0
KHA2 131808Z 13007KT 11/M05 A3033 RMK A01 T01121050  RH  032%=      5-min Rain = 0
KHA2 131809Z 15006KT 11/M05 A3033 RMK A01 T01121050  RH  032%=      5-min Rain = 0
KHA2 131810Z 15010KT 12/M05 A3033 RMK A01 T01161047  RH  032%=      5-min Rain = 0
KHA2 131811Z 14008KT 12/M05 A3033 RMK A01 T01231046  RH  031%=      5-min Rain = 0
KHA2 131812Z 12005KT 13/M05 A3033 RMK A01 T01261046  RH  030%=      5-min Rain = 0
KHA2 131813Z 14007G12KT 13/M05 A3033 RMK A01 T01251047  RH  030%=      5-min Rain = 0
KHA2 131814Z 16008KT 13/M05 A3033 RMK A01 T01251049  RH  029%=      5-min Rain = 0
KHA2 131815Z 17007KT 12/M05 A3033 RMK A01 T01221051  RH  029%=      5-min Rain = 0
KHA2 131816Z 15011KT 12/M05 A3033 RMK A01 T01201050  RH  030%=      5-min Rain = 0
KHA2 131817Z 14010KT 12/M05 A3033 RMK A01 T01201050  RH  030%=      5-min Rain = 0
KHA2 131818Z 15008KT 12/M05 A3033 RMK A01 T01171052  RH  030%=      5-min Rain = 0
KHA2 131819Z 13008KT 12/M05 A3033 RMK A01 T01151051  RH  031%=      5-min Rain = 0
KHA2 131820Z 12009KT 12/M05 A3033 RMK A01 T01181049  RH  031%=      5-min Rain = 0
KHA2 131821Z 13007KT 12/M05 A3033 RMK A01 T01161052  RH  030%=      5-min Rain = 0
KHA2 131822Z 12007KT 12/M05 A3033 RMK A01 T01151051  RH  031%=      5-min Rain = 0
KHA2 131823Z 12007KT 12/M05 A3033 RMK A01 T01151050  RH  031%=      5-min Rain = 0
KHA2 131824Z 15007KT 12/M05 A3033 RMK A01 T01151049  RH  031%=      5-min Rain = 0
KHA2 131825Z 18008KT 12/M05 A3033 RMK A01 T01161050  RH  031%=      5-min Rain = 0
KHA2 131826Z 18008KT 12/M05 A3033 RMK A01 T01181051  RH  030%=      5-min Rain = 0
KHA2 131827Z 17008KT 12/M05 A3033 RMK A01 T01191051  RH  030%=      5-min Rain = 0
KHA2 131828Z 19008KT 12/M05 A3033 RMK A01 T01191051  RH  030%=      5-min Rain = 0
KHA2 131829Z 18005KT 12/M05 A3033 RMK A01 T01171052  RH  030%=      5-min Rain = 0
KHA2 131830Z 16008KT 12/M05 A3033 RMK A01 T01171050  RH  031%=      5-min Rain = 0
KHA2 131831Z 15007KT 12/M05 A3033 RMK A01 T01221047  RH  030%=      5-min Rain = 0
KHA2 131832Z 15006KT 12/M05 A3033 RMK A01 T01221050  RH  030%=      5-min Rain = 0
KHA2 131833Z 12010KT 12/M05 A3033 RMK A01 T01201050  RH  030%=      5-min Rain = 0
KHA2 131834Z 12010KT 12/M05 A3033 RMK A01 T01211049  RH  030%=      5-min Rain = 0
KHA2 131835Z 12008KT 12/M05 A3033 RMK A01 T01221050  RH  030%=      5-min Rain = 0
KHA2 131836Z 16007KT 12/M05 A3033 RMK A01 T01211050  RH  030%=      5-min Rain = 0
KHA2 131837Z 18009KT 12/M05 A3033 RMK A01 T01231051  RH  029%=      5-min Rain = 0
KHA2 131838Z 17009KT 12/M05 A3033 RMK A01 T01231052  RH  029%=      5-min Rain = 0
KHA2 131839Z 17007KT 12/M05 A3033 RMK A01 T01211053  RH  029%=      5-min Rain = 0
KHA2 131840Z 18008KT 12/M05 A3033 RMK A01 T01191053  RH  030%=      5-min Rain = 0
KHA2 131841Z 15012KT 12/M05 A3033 RMK A01 T01191051  RH  030%=      5-min Rain = 0
KHA2 131842Z 15006KT 12/M05 A3033 RMK A01 T01181051  RH  030%=      5-min Rain = 0
KHA2 131843Z 14006KT 12/M05 A3033 RMK A01 T01171051  RH  031%=      5-min Rain = 0
KHA2 131844Z 13007KT 12/M05 A3033 RMK A01 T01171050  RH  031%=      5-min Rain = 0
KHA2 131845Z 14007KT 12/M05 A3033 RMK A01 T01161051  RH  031%=      5-min Rain = 0
KHA2 131846Z 13009KT 12/M05 A3033 RMK A01 T01171051  RH  031%=      5-min Rain = 0
KHA2 131847Z 11009KT 12/M05 A3033 RMK A01 T01211049  RH  030%=      5-min Rain = 0
KHA2 131848Z 13010KT 12/M05 A3033 RMK A01 T01221049  RH  030%=      5-min Rain = 0
KHA2 131849Z 14009KT 12/M05 A3033 RMK A01 T01221050  RH  030%=      5-min Rain = 0
KHA2 131850Z 14008KT 12/M05 A3033 RMK A01 T01231051  RH  029%=      5-min Rain = 0
KHA2 131851Z 13009KT 12/M05 A3033 RMK A01 T01231050  RH  029%=      5-min Rain = 0
KHA2 131852Z 13007KT 12/M05 A3033 RMK A01 T01211051  RH  030%=      5-min Rain = 0
KHA2 131853Z 12004KT 12/M05 A3032 RMK A01 T01201051  RH  030%=      5-min Rain = 0
KHA2 131854Z 13004KT 12/M05 A3032 RMK A01 T01181052  RH  030%=      5-min Rain = 0
KHA2 131855Z 14009KT 12/M05 A3032 RMK A01 T01201049  RH  030%=      5-min Rain = 0
KHA2 131856Z 14008KT 12/M05 A3032 RMK A01 T01211049  RH  030%=      5-min Rain = 0
KHA2 131857Z 11007KT 12/M05 A3032 RMK A01 T01211049  RH  030%=      5-min Rain = 0
KHA2 131858Z 15008KT 12/M05 A3032 RMK A01 T01221048  RH  030%=      5-min Rain = 0
KHA2 131859Z 17008KT 12/M05 A3032 RMK A01 T01231050  RH  030%=      5-min Rain = 0
KHA2 131900Z 17008KT 12/M05 A3032 RMK A01 T01221052  RH  029%=      5-min Rain = 0
KHA2 131901Z 15006KT 12/M05 A3032 RMK A01 T01201054  RH  029%=      5-min Rain = 0
KHA2 131902Z 14007KT 12/M05 A3032 RMK A01 T01211051  RH  030%=      5-min Rain = 0
KHA2 131903Z 12005KT 12/M05 A3032 RMK A01 T01231050  RH  029%=      5-min Rain = 0
KHA2 131904Z 13007KT 12/M05 A3032 RMK A01 T01221051  RH  029%=      5-min Rain = 0
KHA2 131905Z 13009KT 12/M05 A3032 RMK A01 T01231049  RH  030%=      5-min Rain = 0
KHA2 131906Z 13008KT 13/M05 A3032 RMK A01 T01271048  RH  029%=      5-min Rain = 0
KHA2 131907Z 14007KT 13/M05 A3032 RMK A01 T01261050  RH  029%=      5-min Rain = 0
KHA2 131908Z 15007KT 13/M05 A3032 RMK A01 T01251052  RH  029%=      5-min Rain = 0
KHA2 131909Z 15004KT 12/M05 A3032 RMK A01 T01231052  RH  029%=      5-min Rain = 0
KHA2 131910Z 15004KT 12/M05 A3032 RMK A01 T01221052  RH  029%=      5-min Rain = 0
KHA2 131911Z 14008KT 12/M05 A3032 RMK A01 T01231051  RH  029%=      5-min Rain = 0
KHA2 131912Z 15010KT 12/M05 A3031 RMK A01 T01241052  RH  029%=      5-min Rain = 0
KHA2 131913Z 15008KT 12/M05 A3031 RMK A01 T01241052  RH  029%=      5-min Rain = 0
KHA2 131914Z 18005KT 13/M05 A3031 RMK A01 T01271049  RH  029%=      5-min Rain = 0
KHA2 131915Z 16009KT 13/M05 A3031 RMK A01 T01321047  RH  028%=      5-min Rain = 0
KHA2 131916Z 16010KT 13/M05 A3031 RMK A01 T01321051  RH  027%=      5-min Rain = 0
KHA2 131917Z 14008KT 13/M05 A3031 RMK A01 T01291053  RH  028%=      5-min Rain = 0
KHA2 131918Z 16008KT 13/M05 A3031 RMK A01 T01281052  RH  028%=      5-min Rain = 0
KHA2 131919Z 17008KT 13/M05 A3031 RMK A01 T01281051  RH  028%=      5-min Rain = 0
KHA2 131920Z 17005KT 13/M05 A3031 RMK A01 T01261052  RH  028%=      5-min Rain = 0
KHA2 131921Z 13008KT 13/M05 A3031 RMK A01 T01261051  RH  029%=      5-min Rain = 0
KHA2 131922Z 14011KT 13/M05 A3031 RMK A01 T01281050  RH  028%=      5-min Rain = 0
KHA2 131923Z 15012KT 13/M05 A3031 RMK A01 T01281051  RH  028%=      5-min Rain = 0
KHA2 131924Z 16009KT 13/M05 A3031 RMK A01 T01271051  RH  029%=      5-min Rain = 0
KHA2 131925Z 17005KT 13/M05 A3031 RMK A01 T01251051  RH  029%=      5-min Rain = 0
KHA2 131926Z 12005KT 13/M05 A3031 RMK A01 T01251050  RH  029%=      5-min Rain = 0
KHA2 131927Z 11005KT 13/M05 A3031 RMK A01 T01271049  RH  029%=      5-min Rain = 0
KHA2 131928Z 14009KT 13/M05 A3031 RMK A01 T01291048  RH  029%=      5-min Rain = 0
KHA2 131929Z 12008KT 13/M05 A3031 RMK A01 T01311048  RH  028%=      5-min Rain = 0
KHA2 131930Z 11007KT 13/M05 A3031 RMK A01 T01301048  RH  029%=      5-min Rain = 0
KHA2 131931Z 10006KT 13/M05 A3031 RMK A01 T01271049  RH  029%=      5-min Rain = 0
KHA2 131932Z 10006KT 13/M05 A303 RMK A01 T01281046  RH  029%=      5-min Rain = 0
KHA2 131933Z 10006KT 13/M05 A303 RMK A01 T01291048  RH  029%=      5-min Rain = 0
KHA2 131934Z 12010G21KT 13/M05 A303 RMK A01 T01281049  RH  029%=      5-min Rain = 0
KHA2 131935Z 13010KT 13/M05 A303 RMK A01 T01301049  RH  028%=      5-min Rain = 0
KHA2 131936Z 12009KT 13/M05 A303 RMK A01 T01321051  RH  028%=      5-min Rain = 0
KHA2 131937Z 12008KT 13/M05 A303 RMK A01 T01291053  RH  028%=      5-min Rain = 0
KHA2 131938Z 12010KT 13/M05 A303 RMK A01 T01291051  RH  028%=      5-min Rain = 0
KHA2 131939Z 10006KT 13/M05 A303 RMK A01 T01301052  RH  028%=      5-min Rain = 0
KHA2 131940Z 11009KT 13/M05 A303 RMK A01 T01271052  RH  028%=      5-min Rain = 0
KHA2 131941Z 10009KT 13/M05 A303 RMK A01 T01281052  RH  028%=      5-min Rain = 0
KHA2 131942Z 10010KT 13/M05 A303 RMK A01 T01281048  RH  029%=      5-min Rain = 0
KHA2 131943Z 10008KT 13/M05 A303 RMK A01 T01301045  RH  029%=      5-min Rain = 0
KHA2 131944Z 10008KT 13/M05 A303 RMK A01 T01291047  RH  029%=      5-min Rain = 0
KHA2 131945Z 13007KT 13/M05 A303 RMK A01 T01271049  RH  029%=      5-min Rain = 0
KHA2 131946Z 11005KT 13/M05 A303 RMK A01 T01271051  RH  028%=      5-min Rain = 0
KHA2 131947Z 10006KT 13/M05 A303 RMK A01 T01291048  RH  029%=      5-min Rain = 0
KHA2 131948Z 11006KT 13/M05 A3029 RMK A01 T01321049  RH  028%=      5-min Rain = 0
KHA2 131949Z 14008KT 13/M05 A3029 RMK A01 T01321050  RH  028%=      5-min Rain = 0
KHA2 131950Z 11005KT 13/M05 A3029 RMK A01 T01341049  RH  028%=      5-min Rain = 0
KHA2 131951Z 11005KT 14/M05 A3029 RMK A01 T01361050  RH  027%=      5-min Rain = 0
KHA2 131952Z 14006KT 13/M05 A3029 RMK A01 T01341049  RH  027%=      5-min Rain = 0
KHA2 131953Z 15010KT 13/M05 A3029 RMK A01 T01341050  RH  027%=      5-min Rain = 0
KHA2 131954Z 15011KT 13/M05 A3029 RMK A01 T01331052  RH  027%=      5-min Rain = 0
KHA2 131955Z 15010KT 13/M05 A3029 RMK A01 T01311053  RH  027%=      5-min Rain = 0
KHA2 131956Z 16008KT 13/M05 A3029 RMK A01 T01311052  RH  028%=      5-min Rain = 0
KHA2 131957Z 15006KT 13/M05 A3029 RMK A01 T01341051  RH  027%=      5-min Rain = 0
KHA2 131958Z 14009KT 14/M05 A3029 RMK A01 T01351051  RH  027%=      5-min Rain = 0
KHA2 131959Z 12005KT 14/M05 A3029 RMK A01 T01351052  RH  027%=      5-min Rain = 0
KHA2 132000Z 09005KT 14/M05 A3029 RMK A01 T01351050  RH  027%=      5-min Rain = 0
KHA2 132001Z 10002KT 14/M05 A3029 RMK A01 T01361050  RH  027%=      5-min Rain = 0
KHA2 132002Z 13006G12KT 14/M05 A3029 RMK A01 T01391048  RH  027%=      5-min Rain = 0
KHA2 132003Z 12009KT 14/M05 A3029 RMK A01 T01411049  RH  026%=      5-min Rain = 0
KHA2 132004Z 11007KT 14/M05 A3028 RMK A01 T01391052  RH  026%=      5-min Rain = 0
KHA2 132005Z 10008KT 14/M05 A3028 RMK A01 T01381049  RH  027%=      5-min Rain = 0
KHA2 132006Z 11006KT 14/M05 A3028 RMK A01 T01381046  RH  028%=      5-min Rain = 0
KHA2 132007Z 12006KT 14/M04 A3028 RMK A01 T01401044  RH  028%=      5-min Rain = 0
KHA2 132008Z 11009G15KT 14/M05 A3028 RMK A01 T01411050  RH  026%=      5-min Rain = 0
KHA2 132009Z 11011KT 14/M05 A3028 RMK A01 T01391048  RH  027%=      5-min Rain = 0
KHA2 132010Z 11008KT 14/M05 A3028 RMK A01 T01401046  RH  027%=      5-min Rain = 0
KHA2 132011Z 09007KT 14/M05 A3028 RMK A01 T01381049  RH  027%=      5-min Rain = 0
KHA2 132012Z 13008KT 14/M05 A3028 RMK A01 T01361049  RH  027%=      5-min Rain = 0
KHA2 132013Z 14010KT 14/M05 A3028 RMK A01 T01361051  RH  027%=      5-min Rain = 0
KHA2 132014Z 14012KT 14/M05 A3028 RMK A01 T01371051  RH  027%=      5-min Rain = 0
KHA2 132015Z 13012KT 14/M05 A3028 RMK A01 T01381052  RH  026%=      5-min Rain = 0
KHA2 132016Z 13011KT 14/M05 A3028 RMK A01 T01381054  RH  026%=      5-min Rain = 0
KHA2 132017Z 14011KT 14/M05 A3028 RMK A01 T01411051  RH  026%=      5-min Rain = 0
KHA2 132018Z 13009KT 14/M05 A3028 RMK A01 T01411052  RH  026%=      5-min Rain = 0
KHA2 132019Z 13010KT 14/M05 A3029 RMK A01 T01411053  RH  026%=      5-min Rain = 0
KHA2 132020Z 13009KT 14/M05 A3029 RMK A01 T01381054  RH  026%=      5-min Rain = 0
KHA2 132021Z 14006KT 14/M05 A3029 RMK A01 T01391052  RH  026%=      5-min Rain = 0
KHA2 132022Z 17005KT 14/M05 A3028 RMK A01 T01421051  RH  026%=      5-min Rain = 0
KHA2 132023Z 15006KT 14/M05 A3028 RMK A01 T01421052  RH  026%=      5-min Rain = 0
KHA2 132024Z 15009KT 14/M05 A3028 RMK A01 T01441050  RH  026%=      5-min Rain = 0
KHA2 132025Z 16006KT 15/M05 A3028 RMK A01 T01451051  RH  025%=      5-min Rain = 0
KHA2 132026Z 17003KT 14/M05 A3028 RMK A01 T01431053  RH  025%=      5-min Rain = 0
KHA2 132027Z 15003KT 14/M05 A3028 RMK A01 T01431051  RH  026%=      5-min Rain = 0
KHA2 132028Z 16007KT 14/M05 A3028 RMK A01 T01441050  RH  026%=      5-min Rain = 0
KHA2 132029Z 16011KT 15/M05 A3028 RMK A01 T01461050  RH  025%=      5-min Rain = 0
KHA2 132030Z 17010KT 15/M05 A3028 RMK A01 T01451052  RH  025%=      5-min Rain = 0
KHA2 132031Z 19008KT 14/M05 A3028 RMK A01 T01421054  RH  025%=      5-min Rain = 0
KHA2 132032Z 17010KT 15/M05 A3028 RMK A01 T01451050  RH  025%=      5-min Rain = 0
KHA2 132033Z 18006KT 14/M06 A3028 RMK A01 T01441055  RH  025%=      5-min Rain = 0
KHA2 132034Z 14007KT 14/M05 A3028 RMK A01 T01421054  RH  025%=      5-min Rain = 0
KHA2 132035Z 14010KT 14/M05 A3028 RMK A01 T01441053  RH  025%=      5-min Rain = 0
KHA2 132036Z 15007KT 14/M05 A3028 RMK A01 T01441054  RH  025%=      5-min Rain = 0
KHA2 132037Z 15003KT 14/M05 A3028 RMK A01 T01421054  RH  025%=      5-min Rain = 0
KHA2 132038Z 18006KT 14/M05 A3028 RMK A01 T01431054  RH  025%=      5-min Rain = 0
KHA2 132039Z 15010KT 14/M05 A3028 RMK A01 T01441054  RH  025%=      5-min Rain = 0
KHA2 132040Z 13011KT 14/M06 A3028 RMK A01 T01441055  RH  025%=      5-min Rain = 0
KHA2 132041Z 13012KT 15/M06 A3028 RMK A01 T01471055  RH  024%=      5-min Rain = 0
KHA2 132042Z 13011KT 15/M06 A3028 RMK A01 T01481056  RH  024%=      5-min Rain = 0
KHA2 132043Z 13009KT 15/M06 A3028 RMK A01 T01451058  RH  024%=      5-min Rain = 0
KHA2 132044Z 12008KT 14/M06 A3028 RMK A01 T01401058  RH  025%=      5-min Rain = 0
KHA2 132045Z 13007KT 14/M06 A3028 RMK A01 T01391057  RH  025%=      5-min Rain = 0
KHA2 132046Z 12009KT 14/M06 A3028 RMK A01 T01401056  RH  025%=      5-min Rain = 0
KHA2 132047Z 12007KT 14/M06 A3028 RMK A01 T01401057  RH  025%=      5-min Rain = 0
KHA2 132048Z 11005KT 14/M06 A3028 RMK A01 T01371058  RH  025%=      5-min Rain = 0
KHA2 132049Z 13006KT 14/M06 A3028 RMK A01 T01351057  RH  026%=      5-min Rain = 0
KHA2 132050Z 14009KT 14/M06 A3028 RMK A01 T01361056  RH  026%=      5-min Rain = 0
KHA2 132051Z 14010KT 14/M05 A3028 RMK A01 T01401054  RH  026%=      5-min Rain = 0
KHA2 132052Z 13009KT 14/M06 A3028 RMK A01 T01401055  RH  025%=      5-min Rain = 0
KHA2 132053Z 12008KT 14/M06 A3028 RMK A01 T01381057  RH  025%=      5-min Rain = 0
KHA2 132054Z 14007KT 14/M06 A3028 RMK A01 T01371057  RH  026%=      5-min Rain = 0
KHA2 132055Z 13009KT 14/M06 A3028 RMK A01 T01371056  RH  026%=      5-min Rain = 0
KHA2 132056Z 13009KT 14/M06 A3028 RMK A01 T01381055  RH  026%=      5-min Rain = 0
KHA2 132057Z 14007KT 14/M06 A3028 RMK A01 T01391055  RH  026%=      5-min Rain = 0
KHA2 132058Z 14011KT 14/M06 A3028 RMK A01 T01391055  RH  026%=      5-min Rain = 0
KHA2 132059Z 15007KT 14/M06 A3028 RMK A01 T01401056  RH  025%=      5-min Rain = 0
KHA2 132100Z 15009KT 14/M06 A3028 RMK A01 T01391057  RH  025%=      5-min Rain = 0
KHA2 132101Z 16008KT 14/M06 A3028 RMK A01 T01381056  RH  025%=      5-min Rain = 0
KHA2 132102Z 13010KT 14/M06 A3028 RMK A01 T01391056  RH  026%=      5-min Rain = 0
KHA2 132103Z 13007KT 14/M06 A3028 RMK A01 T01391055  RH  025%=      5-min Rain = 0
KHA2 132104Z 13004KT 14/M06 A3028 RMK A01 T01381057  RH  025%=      5-min Rain = 0
KHA2 132105Z 12011KT 14/M06 A3028 RMK A01 T01391055  RH  026%=      5-min Rain = 0
KHA2 132106Z 13008G13KT 14/M06 A3028 RMK A01 T01401055  RH  025%=      5-min Rain = 0
KHA2 132107Z 12005KT 14/M06 A3028 RMK A01 T01381057  RH  026%=      5-min Rain = 0
KHA2 132108Z 13007KT 14/M05 A3028 RMK A01 T01391054  RH  026%=      5-min Rain = 0
KHA2 132109Z 14007KT 14/M06 A3028 RMK A01 T01391055  RH  026%=      5-min Rain = 0
KHA2 132110Z 16006KT 14/M06 A3028 RMK A01 T01391055  RH  026%=      5-min Rain = 0
KHA2 132111Z 15003KT 14/M05 A3028 RMK A01 T01411052  RH  026%=      5-min Rain = 0
KHA2 132112Z 17003KT 15/M05 A3028 RMK A01 T01451051  RH  025%=      5-min Rain = 0
KHA2 132113Z 18003KT 15/M05 A3028 RMK A01 T01481051  RH  025%=      5-min Rain = 0
KHA2 132114Z 19002KT 15/M05 A3028 RMK A01 T01481053  RH  024%=      5-min Rain = 0
KHA2 132115Z 17003KT 15/M05 A3028 RMK A01 T01471052  RH  025%=      5-min Rain = 0
KHA2 132116Z 16003KT 15/M06 A3028 RMK A01 T01471055  RH  024%=      5-min Rain = 0
KHA2 132117Z 12002KT 15/M06 A3028 RMK A01 T01451055  RH  025%=      5-min Rain = 0
KHA2 132118Z 11005KT 15/M05 A3028 RMK A01 T01461054  RH  025%=      5-min Rain = 0
KHA2 132119Z 09008KT 15/M05 A3028 RMK A01 T01451053  RH  025%=      5-min Rain = 0
KHA2 132120Z 12010KT 14/M05 A3028 RMK A01 T01431051  RH  026%=      5-min Rain = 0
KHA2 132121Z 13009KT 14/M06 A3028 RMK A01 T01411055  RH  025%=      5-min Rain = 0
KHA2 132122Z 12013KT 14/M06 A3027 RMK A01 T01411055  RH  025%=      5-min Rain = 0
KHA2 132123Z 12011KT 14/M06 A3027 RMK A01 T01421055  RH  025%=      5-min Rain = 0
KHA2 132124Z 14010KT 14/M06 A3027 RMK A01 T01411056  RH  025%=      5-min Rain = 0
KHA2 132125Z 12010KT 14/M06 A3027 RMK A01 T01401056  RH  025%=      5-min Rain = 0
KHA2 132126Z 13009KT 14/M06 A3027 RMK A01 T01391056  RH  025%=      5-min Rain = 0
KHA2 132127Z 13008KT 14/M06 A3027 RMK A01 T01391056  RH  025%=      5-min Rain = 0
KHA2 132128Z 17008KT 14/M06 A3027 RMK A01 T01391056  RH  025%=      5-min Rain = 0
KHA2 132129Z 19006KT 14/M06 A3027 RMK A01 T01391056  RH  025%=      5-min Rain = 0
KHA2 132130Z 17008KT 14/M06 A3027 RMK A01 T01381056  RH  025%=      5-min Rain = 0
KHA2 132131Z 18007KT 14/M06 A3027 RMK A01 T01381056  RH  026%=      5-min Rain = 0
KHA2 132132Z 16007KT 14/M06 A3027 RMK A01 T01381056  RH  026%=      5-min Rain = 0
KHA2 132133Z 14011KT 14/M06 A3027 RMK A01 T01391055  RH  026%=      5-min Rain = 0
KHA2 132134Z 13009KT 14/M06 A3027 RMK A01 T01411055  RH  025%=      5-min Rain = 0
KHA2 132135Z 12011KT 14/M06 A3027 RMK A01 T01411055  RH  025%=      5-min Rain = 0
KHA2 132136Z 11007KT 14/M05 A3027 RMK A01 T01421054  RH  025%=      5-min Rain = 0
KHA2 132137Z 11009KT 14/M05 A3027 RMK A01 T01431052  RH  026%=      5-min Rain = 0
KHA2 132138Z 14011KT 15/M05 A3027 RMK A01 T01491050  RH  025%=      5-min Rain = 0
KHA2 132139Z 11012KT 15/M05 A3027 RMK A01 T01521052  RH  024%=      5-min Rain = 0
KHA2 132140Z 12014KT 15/M05 A3027 RMK A01 T01501053  RH  024%=      5-min Rain = 0
KHA2 132141Z 12013KT 15/M06 A3027 RMK A01 T01471056  RH  024%=      5-min Rain = 0
KHA2 132142Z 14011KT 14/M06 A3027 RMK A01 T01441056  RH  025%=      5-min Rain = 0
KHA2 132143Z 15009KT 14/M06 A3027 RMK A01 T01431055  RH  025%=      5-min Rain = 0
KHA2 132144Z 14007G12KT 14/M06 A3027 RMK A01 T01421056  RH  025%=      5-min Rain = 0
KHA2 132145Z 11013KT 14/M06 A3027 RMK A01 T01411055  RH  025%=      5-min Rain = 0
KHA2 132146Z 11014KT 14/M05 A3027 RMK A01 T01411052  RH  026%=      5-min Rain = 0
KHA2 132147Z 11012KT 14/M05 A3027 RMK A01 T01391054  RH  026%=      5-min Rain = 0
KHA2 132148Z 11010KT 14/M05 A3027 RMK A01 T01391054  RH  026%=      5-min Rain = 0
KHA2 132149Z 10010KT 14/M05 A3027 RMK A01 T01391050  RH  027%=      5-min Rain = 0
KHA2 132150Z 11008G13KT 14/M05 A3027 RMK A01 T01401052  RH  026%=      5-min Rain = 0
KHA2 132151Z 13011G16KT 14/M05 A3027 RMK A01 T01391053  RH  026%=      5-min Rain = 0
KHA2 132152Z 11009KT 14/M06 A3027 RMK A01 T01381056  RH  026%=      5-min Rain = 0
KHA2 132153Z 11012KT 14/M05 A3027 RMK A01 T01401053  RH  026%=      5-min Rain = 0
KHA2 132154Z 10008KT 14/M06 A3027 RMK A01 T01391055  RH  025%=      5-min Rain = 0
KHA2 132155Z 10009KT 14/M05 A3027 RMK A01 T01371052  RH  026%=      5-min Rain = 0
KHA2 132156Z 11009KT 14/M05 A3027 RMK A01 T01371052  RH  027%=      5-min Rain = 0
KHA2 132157Z 12007KT 14/M05 A3027 RMK A01 T01361054  RH  026%=      5-min Rain = 0
KHA2 132158Z 13006KT 14/M06 A3027 RMK A01 T01361056  RH  026%=      5-min Rain = 0
KHA2 132159Z 14010KT 14/M05 A3027 RMK A01 T01381054  RH  026%=      5-min Rain = 0
KHA2 132200Z 13010KT 14/M05 A3027 RMK A01 T01431053  RH  025%=      5-min Rain = 0
KHA2 132201Z 13010KT 14/M06 A3027 RMK A01 T01441055  RH  025%=      5-min Rain = 0
KHA2 132202Z 12010KT 15/M05 A3027 RMK A01 T01481052  RH  025%=      5-min Rain = 0
KHA2 132203Z 13008KT 15/M06 A3027 RMK A01 T01471055  RH  024%=      5-min Rain = 0
KHA2 132204Z 15006KT 15/M06 A3027 RMK A01 T01451056  RH  024%=      5-min Rain = 0
KHA2 132205Z 16006KT 14/M06 A3027 RMK A01 T01411058  RH  025%=      5-min Rain = 0
KHA2 132206Z 15007KT 14/M06 A3027 RMK A01 T01401057  RH  025%=      5-min Rain = 0
KHA2 132207Z 14006KT 14/M06 A3027 RMK A01 T01401057  RH  025%=      5-min Rain = 0
KHA2 132208Z 11005KT 14/M06 A3027 RMK A01 T01401057  RH  025%=      5-min Rain = 0
KHA2 132209Z 09007KT 14/M06 A3026 RMK A01 T01401055  RH  025%=      5-min Rain = 0
KHA2 132210Z 10006KT 14/M05 A3026 RMK A01 T01411054  RH  026%=      5-min Rain = 0
KHA2 132211Z 14010KT 14/M05 A3026 RMK A01 T01391054  RH  026%=      5-min Rain = 0
KHA2 132212Z 13011KT 14/M06 A3026 RMK A01 T01401056  RH  025%=      5-min Rain = 0
KHA2 132213Z 12010KT 14/M06 A3026 RMK A01 T01401056  RH  025%=      5-min Rain = 0
KHA2 132214Z 12009KT 14/M06 A3026 RMK A01 T01391057  RH  025%=      5-min Rain = 0
KHA2 132215Z 12011KT 14/M06 A3026 RMK A01 T01401055  RH  026%=      5-min Rain = 0
KHA2 132216Z 13011KT 14/M06 A3026 RMK A01 T01411055  RH  025%=      5-min Rain = 0
KHA2 132217Z 14013KT 14/M06 A3026 RMK A01 T01421055  RH  025%=      5-min Rain = 0
KHA2 132218Z 14011KT 15/M06 A3026 RMK A01 T01451055  RH  025%=      5-min Rain = 0
KHA2 132219Z 14009G15KT 15/M06 A3026 RMK A01 T01451056  RH  024%=      5-min Rain = 0
KHA2 132220Z 15011KT 14/M06 A3027 RMK A01 T01441057  RH  024%=      5-min Rain = 0
KHA2 132221Z 16010KT 14/M06 A3027 RMK A01 T01441056  RH  025%=      5-min Rain = 0
KHA2 132222Z 15013KT 15/M05 A3027 RMK A01 T01471054  RH  024%=      5-min Rain = 0
KHA2 132223Z 14012KT 15/M06 A3026 RMK A01 T01481055  RH  024%=      5-min Rain = 0
KHA2 132224Z 16012KT 15/M06 A3027 RMK A01 T01491055  RH  024%=      5-min Rain = 0
KHA2 132225Z 16011KT 15/M06 A3026 RMK A01 T01471056  RH  024%=      5-min Rain = 0
KHA2 132226Z 16012KT 15/M05 A3026 RMK A01 T01491054  RH  024%=      5-min Rain = 0
KHA2 132227Z 15011KT 15/M06 A3027 RMK A01 T01491056  RH  024%=      5-min Rain = 0
KHA2 132228Z 17009KT 15/M06 A3027 RMK A01 T01471057  RH  024%=      5-min Rain = 0
KHA2 132229Z 16009KT 15/M06 A3027 RMK A01 T01471056  RH  024%=      5-min Rain = 0
KHA2 132230Z 15011KT 15/M06 A3027 RMK A01 T01471056  RH  024%=      5-min Rain = 0
KHA2 132231Z 15010KT 15/M06 A3027 RMK A01 T01471057  RH  024%=      5-min Rain = 0
KHA2 132232Z 13011KT 14/M06 A3027 RMK A01 T01441058  RH  024%=      5-min Rain = 0
KHA2 132233Z 13011KT 14/M06 A3027 RMK A01 T01441058  RH  024%=      5-min Rain = 0
KHA2 132234Z 13006KT 14/M06 A3026 RMK A01 T01391060  RH  025%=      5-min Rain = 0
KHA2 132235Z 12006KT 14/M06 A3026 RMK A01 T01361059  RH  025%=      5-min Rain = 0
KHA2 132236Z 11006KT 14/M06 A3026 RMK A01 T01351059  RH  025%=      5-min Rain = 0
KHA2 132237Z 13009KT 14/M06 A3026 RMK A01 T01351056  RH  026%=      5-min Rain = 0
KHA2 132238Z 14011KT 14/M06 A3026 RMK A01 T01371056  RH  026%=      5-min Rain = 0
KHA2 132239Z 13008KT 14/M06 A3026 RMK A01 T01371057  RH  025%=      5-min Rain = 0
KHA2 132240Z 12008KT 14/M06 A3026 RMK A01 T01391055  RH  026%=      5-min Rain = 0
KHA2 132241Z 13007KT 14/M06 A3026 RMK A01 T01421055  RH  025%=      5-min Rain = 0
KHA2 132242Z 14010KT 14/M06 A3026 RMK A01 T01411056  RH  025%=      5-min Rain = 0
KHA2 132243Z 14010KT 14/M05 A3026 RMK A01 T01441054  RH  025%=      5-min Rain = 0
KHA2 132244Z 14012KT 15/M05 A3026 RMK A01 T01471054  RH  025%=      5-min Rain = 0
KHA2 132245Z 14010KT 15/M06 A3026 RMK A01 T01461056  RH  024%=      5-min Rain = 0
KHA2 132246Z 15008KT 15/M06 A3026 RMK A01 T01451056  RH  024%=      5-min Rain = 0
KHA2 132247Z 15007KT 15/M06 A3026 RMK A01 T01461056  RH  024%=      5-min Rain = 0
KHA2 132248Z 13006KT 14/M06 A3026 RMK A01 T01441058  RH  024%=      5-min Rain = 0
KHA2 132249Z 13007KT 14/M06 A3026 RMK A01 T01431056  RH  025%=      5-min Rain = 0
KHA2 132250Z 14009KT 15/M06 A3026 RMK A01 T01461055  RH  024%=      5-min Rain = 0
KHA2 132251Z 15007KT 15/M06 A3026 RMK A01 T01461057  RH  024%=      5-min Rain = 0
KHA2 132252Z 14009KT 15/M06 A3026 RMK A01 T01451056  RH  024%=      5-min Rain = 0
KHA2 132253Z 13012KT 15/M05 A3026 RMK A01 T01501054  RH  024%=      5-min Rain = 0
KHA2 132254Z 13011KT 15/M06 A3026 RMK A01 T01481057  RH  024%=      5-min Rain = 0
KHA2 132255Z 13009KT 15/M06 A3026 RMK A01 T01451058  RH  024%=      5-min Rain = 0
KHA2 132256Z 13009KT 14/M06 A3026 RMK A01 T01441057  RH  024%=      5-min Rain = 0
KHA2 132257Z 13009KT 14/M06 A3026 RMK A01 T01441056  RH  025%=      5-min Rain = 0
KHA2 132258Z 14011KT 14/M06 A3026 RMK A01 T01431057  RH  024%=      5-min Rain = 0
KHA2 132259Z 13012KT 14/M06 A3026 RMK A01 T01421058  RH  025%=      5-min Rain = 0
KHA2 132300Z 13010KT 14/M06 A3026 RMK A01 T01401058  RH  025%=      5-min Rain = 0
KHA2 132301Z 15011KT 14/M06 A3026 RMK A01 T01381058  RH  025%=      5-min Rain = 0
KHA2 132302Z 14009KT 14/M06 A3026 RMK A01 T01371058  RH  025%=      5-min Rain = 0
KHA2 132303Z 15009KT 14/M06 A3026 RMK A01 T01391056  RH  025%=      5-min Rain = 0
KHA2 132304Z 14011KT 14/M06 A3026 RMK A01 T01401057  RH  025%=      5-min Rain = 0
KHA2 132305Z 12010KT 14/M06 A3026 RMK A01 T01391058  RH  025%=      5-min Rain = 0
KHA2 132306Z 11011KT 14/M06 A3026 RMK A01 T01381057  RH  025%=      5-min Rain = 0
KHA2 132307Z 11009KT 14/M06 A3026 RMK A01 T01381055  RH  026%=      5-min Rain = 0
KHA2 132308Z 11010KT 14/M05 A3026 RMK A01 T01381054  RH  026%=      5-min Rain = 0
KHA2 132309Z 10007KT 14/M06 A3026 RMK A01 T01381055  RH  026%=      5-min Rain = 0
KHA2 132310Z 11007KT 14/M05 A3026 RMK A01 T01381053  RH  026%=      5-min Rain = 0
KHA2 132311Z 13008KT 14/M06 A3026 RMK A01 T01391055  RH  026%=      5-min Rain = 0
KHA2 132312Z 15010KT 14/M06 A3026 RMK A01 T01421055  RH  025%=      5-min Rain = 0
KHA2 132313Z 17013KT 14/M06 A3025 RMK A01 T01431056  RH  025%=      5-min Rain = 0
KHA2 132314Z 17011KT 14/M06 A3025 RMK A01 T01411058  RH  025%=      5-min Rain = 0
KHA2 132315Z 17008KT 14/M06 A3025 RMK A01 T01381059  RH  025%=      5-min Rain = 0
KHA2 132316Z 16008KT 14/M06 A3025 RMK A01 T01381057  RH  025%=      5-min Rain = 0
KHA2 132317Z 16011KT 14/M06 A3025 RMK A01 T01371057  RH  025%=      5-min Rain = 0
KHA2 132318Z 16010KT 14/M06 A3025 RMK A01 T01371057  RH  025%=      5-min Rain = 0
KHA2 132319Z 13007KT 14/M06 A3025 RMK A01 T01371057  RH  026%=      5-min Rain = 0
KHA2 132320Z 12010KT 14/M06 A3025 RMK A01 T01381056  RH  025%=      5-min Rain = 0
KHA2 132321Z 13013KT 14/M06 A3025 RMK A01 T01381056  RH  025%=      5-min Rain = 0
KHA2 132322Z 16012KT 14/M06 A3026 RMK A01 T01381057  RH  025%=      5-min Rain = 0
KHA2 132323Z 16011KT 14/M06 A3026 RMK A01 T01381057  RH  025%=      5-min Rain = 0
KHA2 132324Z 17008KT 14/M06 A3026 RMK A01 T01371057  RH  025%=      5-min Rain = 0
KHA2 132325Z 17006KT 14/M06 A3026 RMK A01 T01361058  RH  026%=      5-min Rain = 0
KHA2 132326Z 17006KT 14/M06 A3026 RMK A01 T01361057  RH  026%=      5-min Rain = 0
KHA2 132327Z 16010KT 14/M06 A3026 RMK A01 T01371057  RH  026%=      5-min Rain = 0
KHA2 132328Z 15009KT 14/M06 A3026 RMK A01 T01361058  RH  026%=      5-min Rain = 0
KHA2 132329Z 14006KT 14/M06 A3026 RMK A01 T01351058  RH  026%=      5-min Rain = 0
KHA2 132330Z 13006KT 14/M06 A3026 RMK A01 T01351058  RH  026%=      5-min Rain = 0
KHA2 132331Z 16005KT 14/M06 A3026 RMK A01 T01351057  RH  026%=      5-min Rain = 0
KHA2 132332Z 15007KT 14/M06 A3026 RMK A01 T01361057  RH  026%=      5-min Rain = 0
KHA2 132333Z 13010KT 14/M06 A3026 RMK A01 T01361057  RH  026%=      5-min Rain = 0
KHA2 132334Z 12011KT 14/M06 A3026 RMK A01 T01361057  RH  026%=      5-min Rain = 0
KHA2 132335Z 11012KT 13/M06 A3026 RMK A01 T01341057  RH  026%=      5-min Rain = 0
KHA2 132336Z 11009KT 13/M05 A3026 RMK A01 T01321050  RH  028%=      5-min Rain = 0
KHA2 132337Z 09010KT 13/M05 A3026 RMK A01 T01311054  RH  027%=      5-min Rain = 0
KHA2 132338Z 09010KT 13/M05 A3026 RMK A01 T01301051  RH  028%=      5-min Rain = 0
KHA2 132339Z 09010KT 13/M05 A3026 RMK A01 T01301046  RH  029%=      5-min Rain = 0
KHA2 132340Z 11012KT 13/M05 A3026 RMK A01 T01301047  RH  029%=      5-min Rain = 0
KHA2 132341Z 12012KT 13/M05 A3026 RMK A01 T01311054  RH  027%=      5-min Rain = 0
KHA2 132342Z 12010KT 13/M06 A3026 RMK A01 T01311057  RH  026%=      5-min Rain = 0
KHA2 132343Z 12010KT 13/M06 A3026 RMK A01 T01311057  RH  026%=      5-min Rain = 0
KHA2 132344Z 13013KT 13/M06 A3026 RMK A01 T01311057  RH  026%=      5-min Rain = 0
KHA2 132345Z 13012KT 13/M06 A3026 RMK A01 T01311058  RH  026%=      5-min Rain = 0
KHA2 132346Z 13011KT 13/M06 A3026 RMK A01 T01311058  RH  026%=      5-min Rain = 0
KHA2 132347Z 12011KT 13/M06 A3026 RMK A01 T01311058  RH  026%=      5-min Rain = 0
KHA2 132348Z 13011KT 13/M06 A3026 RMK A01 T01301058  RH  026%=      5-min Rain = 0
KHA2 132349Z 11012KT 13/M06 A3026 RMK A01 T01291059  RH  027%=      5-min Rain = 0
KHA2 132350Z 12009KT 13/M06 A3026 RMK A01 T01291059  RH  027%=      5-min Rain = 0
KHA2 132351Z 11008KT 13/M06 A3026 RMK A01 T01291058  RH  027%=      5-min Rain = 0
KHA2 132352Z 11010KT 13/M06 A3026 RMK A01 T01291056  RH  027%=      5-min Rain = 0
KHA2 132353Z 11010KT 13/M06 A3026 RMK A01 T01281057  RH  027%=      5-min Rain = 0
KHA2 132354Z 11011KT 13/M06 A3026 RMK A01 T01291057  RH  027%=      5-min Rain = 0
KHA2 132355Z 12011KT 13/M06 A3026 RMK A01 T01291057  RH  027%=      5-min Rain = 0
KHA2 132356Z 14011KT 13/M06 A3026 RMK A01 T01291057  RH  027%=      5-min Rain = 0
KHA2 132357Z 14012KT 13/M06 A3026 RMK A01 T01301057  RH  027%=      5-min Rain = 0
KHA2 132358Z 13012KT 13/M06 A3026 RMK A01 T01301057  RH  027%=      5-min Rain = 0
KHA2 132359Z 12011KT 13/M06 A3026 RMK A01 T01301058  RH  027%=      5-min Rain = 0
KHA2 140000Z 11012KT 13/M06 A3026 RMK A01 T01301057  RH  027%=      5-min Rain = 0
KHA2 140001Z 11010KT 13/M06 A3026 RMK A01 T01301057  RH  027%=      5-min Rain = 0
KHA2 140002Z 12010KT 13/M06 A3026 RMK A01 T01301056  RH  027%=      5-min Rain = 0
KHA2 140003Z 11011KT 13/M06 A3026 RMK A01 T01301057  RH  027%=      5-min Rain = 0
KHA2 140004Z 10010KT 13/M05 A3026 RMK A01 T01301053  RH  028%=      5-min Rain = 0
KHA2 140005Z 11009KT 13/M05 A3026 RMK A01 T01311053  RH  027%=      5-min Rain = 0
KHA2 140006Z 12012KT 13/M06 A3026 RMK A01 T01321055  RH  027%=      5-min Rain = 0
KHA2 140007Z 12013KT 13/M06 A3026 RMK A01 T01321057  RH  026%=      5-min Rain = 0
KHA2 140008Z 12011KT 13/M06 A3026 RMK A01 T01311058  RH  026%=      5-min Rain = 0
KHA2 140009Z 12010KT 13/M06 A3026 RMK A01 T01301058  RH  026%=      5-min Rain = 0
KHA2 140010Z 12011KT 13/M06 A3026 RMK A01 T01301058  RH  027%=      5-min Rain = 0
KHA2 140011Z 11012KT 13/M06 A3026 RMK A01 T01311057  RH  027%=      5-min Rain = 0
KHA2 140012Z 11011KT 13/M06 A3026 RMK A01 T01301057  RH  027%=      5-min Rain = 0
KHA2 140013Z 11010KT 13/M06 A3026 RMK A01 T01301055  RH  027%=      5-min Rain = 0
KHA2 140014Z 11011KT 13/M05 A3026 RMK A01 T01301053  RH  028%=      5-min Rain = 0
KHA2 140015Z 11012KT 13/M05 A3026 RMK A01 T01291053  RH  028%=      5-min Rain = 0
KHA2 140016Z 12010KT 13/M06 A3026 RMK A01 T01291055  RH  027%=      5-min Rain = 0
KHA2 140017Z 12011KT 13/M06 A3026 RMK A01 T01291058  RH  027%=      5-min Rain = 0
KHA2 140018Z 13011KT 13/M06 A3026 RMK A01 T01291058  RH  027%=      5-min Rain = 0
KHA2 140019Z 13011KT 13/M06 A3026 RMK A01 T01281058  RH  027%=      5-min Rain = 0
KHA2 140020Z 12008KT 13/M06 A3026 RMK A01 T01271058  RH  027%=      5-min Rain = 0
KHA2 140021Z 12011KT 13/M06 A3026 RMK A01 T01281057  RH  027%=      5-min Rain = 0
KHA2 140022Z 12010KT 13/M06 A3026 RMK A01 T01271058  RH  027%=      5-min Rain = 0
KHA2 140023Z 12009KT 13/M06 A3026 RMK A01 T01271058  RH  027%=      5-min Rain = 0
KHA2 140024Z 12011KT 13/M06 A3026 RMK A01 T01261058  RH  027%=      5-min Rain = 0
KHA2 140025Z 11013KT 13/M06 A3026 RMK A01 T01261058  RH  027%=      5-min Rain = 0
KHA2 140026Z 11011KT 13/M06 A3026 RMK A01 T01251057  RH  028%=      5-min Rain = 0
KHA2 140027Z 11012KT 12/M06 A3026 RMK A01 T01241058  RH  028%=      5-min Rain = 0
KHA2 140028Z 11010KT 12/M06 A3026 RMK A01 T01241058  RH  028%=      5-min Rain = 0
KHA2 140029Z 12011KT 12/M06 A3026 RMK A01 T01231057  RH  028%=      5-min Rain = 0
KHA2 140030Z 11012KT 12/M06 A3026 RMK A01 T01231058  RH  028%=      5-min Rain = 0
KHA2 140031Z 11014KT 12/M06 A3026 RMK A01 T01221055  RH  029%=      5-min Rain = 0
KHA2 140032Z 11013KT 12/M06 A3026 RMK A01 T01211056  RH  029%=      5-min Rain = 0
KHA2 140033Z 11013KT 12/M06 A3026 RMK A01 T01201057  RH  029%=      5-min Rain = 0
KHA2 140034Z 10013KT 12/M05 A3026 RMK A01 T01201054  RH  029%=      5-min Rain = 0
KHA2 140035Z 11011KT 12/M05 A3026 RMK A01 T01191048  RH  031%=      5-min Rain = 0
KHA2 140036Z 11014KT 12/M05 A3026 RMK A01 T01181052  RH  030%=      5-min Rain = 0
KHA2 140037Z 10013KT 12/M05 A3026 RMK A01 T01181054  RH  030%=      5-min Rain = 0
KHA2 140038Z 11013KT 12/M05 A3026 RMK A01 T01171053  RH  030%=      5-min Rain = 0
KHA2 140039Z 11012KT 12/M05 A3026 RMK A01 T01161053  RH  030%=      5-min Rain = 0
KHA2 140040Z 11010KT 12/M05 A3026 RMK A01 T01161053  RH  030%=      5-min Rain = 0
KHA2 140041Z 11011KT 12/M05 A3026 RMK A01 T01151053  RH  030%=      5-min Rain = 0
KHA2 140042Z 11011KT 11/M05 A3026 RMK A01 T01141054  RH  030%=      5-min Rain = 0
KHA2 140043Z 11012KT 11/M06 A3026 RMK A01 T01131055  RH  030%=      5-min Rain = 0
KHA2 140044Z 11011KT 11/M06 A3026 RMK A01 T01131057  RH  030%=      5-min Rain = 0
KHA2 140045Z 11012KT 11/M06 A3026 RMK A01 T01131058  RH  030%=      5-min Rain = 0
KHA2 140046Z 11012KT 11/M06 A3026 RMK A01 T01131057  RH  030%=      5-min Rain = 0
KHA2 140047Z 11012KT 11/M06 A3026 RMK A01 T01121055  RH  031%=      5-min Rain = 0
KHA2 140048Z 11012KT 11/M06 A3026 RMK A01 T01111055  RH  031%=      5-min Rain = 0
KHA2 140049Z 11012KT 11/M06 A3026 RMK A01 T01111056  RH  030%=      5-min Rain = 0
KHA2 140050Z 11011KT 11/M06 A3026 RMK A01 T01101058  RH  030%=      5-min Rain = 0
KHA2 140051Z 11011KT 11/M06 A3026 RMK A01 T01101057  RH  031%=      5-min Rain = 0
KHA2 140052Z 11011KT 11/M06 A3026 RMK A01 T01091058  RH  030%=      5-min Rain = 0
KHA2 140053Z 11012KT 11/M06 A3026 RMK A01 T01081056  RH  031%=      5-min Rain = 0
KHA2 140054Z 11012KT 11/M06 A3027 RMK A01 T01081057  RH  031%=      5-min Rain = 0
KHA2 140055Z 10010KT 11/M06 A3027 RMK A01 T01071057  RH  031%=      5-min Rain = 0
KHA2 140056Z 11010KT 11/M06 A3027 RMK A01 T01061055  RH  032%=      5-min Rain = 0
KHA2 140057Z 10010KT 11/M06 A3027 RMK A01 T01051057  RH  031%=      5-min Rain = 0
KHA2 140058Z 10009KT 11/M06 A3027 RMK A01 T01051056  RH  032%=      5-min Rain = 0
KHA2 140059Z 10009KT 10/M06 A3027 RMK A01 T01041055  RH  032%=      5-min Rain = 0
KHA2 140100Z 10010KT 10/M06 A3027 RMK A01 T01031056  RH  032%=      5-min Rain = 0
KHA2 140101Z 10009KT 10/M05 A3027 RMK A01 T01031054  RH  033%=      5-min Rain = 0
KHA2 140102Z 10009KT 10/M05 A3027 RMK A01 T01021054  RH  033%=      5-min Rain = 0
KHA2 140103Z 10009KT 10/M05 A3027 RMK A01 T01021053  RH  033%=      5-min Rain = 0
KHA2 140104Z 10009KT 10/M06 A3027 RMK A01 T01021055  RH  033%=      5-min Rain = 0
KHA2 140105Z 11011KT 10/M06 A3027 RMK A01 T01011057  RH  032%=      5-min Rain = 0
KHA2 140106Z 11011KT 10/M06 A3027 RMK A01 T01011058  RH  032%=      5-min Rain = 0
KHA2 140107Z 10010KT 10/M06 A3027 RMK A01 T01011058  RH  032%=      5-min Rain = 0
KHA2 140108Z 11009KT 10/M06 A3027 RMK A01 T01001057  RH  033%=      5-min Rain = 0
KHA2 140109Z 10009KT 10/M06 A3027 RMK A01 T00991058  RH  033%=      5-min Rain = 0
KHA2 140110Z 11009KT 10/M06 A3027 RMK A01 T00981058  RH  033%=      5-min Rain = 0
KHA2 140111Z 11009KT 10/M06 A3027 RMK A01 T00971060  RH  032%=      5-min Rain = 0
KHA2 140112Z 11009KT 10/M06 A3027 RMK A01 T00971061  RH  032%=      5-min Rain = 0
KHA2 140113Z 11009KT 10/M06 A3027 RMK A01 T00951062  RH  032%=      5-min Rain = 0
KHA2 140114Z 11010KT 09/M06 A3027 RMK A01 T00941063  RH  032%=      5-min Rain = 0
KHA2 140115Z 11009KT 09/M06 A3027 RMK A01 T00941062  RH  033%=      5-min Rain = 0
KHA2 140116Z 11009KT 09/M06 A3027 RMK A01 T00941062  RH  033%=      5-min Rain = 0
KHA2 140117Z 11009KT 09/M06 A3027 RMK A01 T00931061  RH  033%=      5-min Rain = 0
KHA2 140118Z 11009KT 09/M06 A3027 RMK A01 T00921062  RH  033%=      5-min Rain = 0
KHA2 140119Z 10009KT 09/M06 A3027 RMK A01 T00911062  RH  033%=      5-min Rain = 0
KHA2 140120Z 10009KT 09/M06 A3027 RMK A01 T00901061  RH  034%=      5-min Rain = 0
KHA2 140121Z 11009KT 09/M06 A3027 RMK A01 T00891061  RH  034%=      5-min Rain = 0
KHA2 140122Z 10008KT 09/M06 A3027 RMK A01 T00881061  RH  034%=      5-min Rain = 0
KHA2 140123Z 10009KT 09/M06 A3027 RMK A01 T00871062  RH  034%=      5-min Rain = 0
KHA2 140124Z 11009KT 09/M06 A3027 RMK A01 T00871061  RH  034%=      5-min Rain = 0
KHA2 140125Z 10009KT 09/M06 A3027 RMK A01 T00871061  RH  035%=      5-min Rain = 0
KHA2 140126Z 11010KT 09/M06 A3027 RMK A01 T00871061  RH  035%=      5-min Rain = 0
KHA2 140127Z 11010KT 09/M06 A3027 RMK A01 T00871062  RH  034%=      5-min Rain = 0
KHA2 140128Z 11010KT 09/M06 A3027 RMK A01 T00871062  RH  034%=      5-min Rain = 0
KHA2 140129Z 11010KT 09/M06 A3027 RMK A01 T00871060  RH  035%=      5-min Rain = 0
KHA2 140130Z 11010KT 09/M06 A3027 RMK A01 T00871061  RH  035%=      5-min Rain = 0
KHA2 140131Z 11010KT 09/M06 A3027 RMK A01 T00871062  RH  034%=      5-min Rain = 0
KHA2 140132Z 11011KT 09/M06 A3027 RMK A01 T00861063  RH  034%=      5-min Rain = 0
KHA2 140133Z 11010KT 09/M06 A3027 RMK A01 T00861063  RH  034%=      5-min Rain = 0
KHA2 140134Z 11009KT 09/M06 A3027 RMK A01 T00851064  RH  034%=      5-min Rain = 0
KHA2 140135Z 11010KT 08/M06 A3027 RMK A01 T00841064  RH  034%=      5-min Rain = 0
KHA2 140136Z 11010KT 08/M06 A3027 RMK A01 T00831064  RH  035%=      5-min Rain = 0
KHA2 140137Z 11010KT 08/M06 A3027 RMK A01 T00831064  RH  035%=      5-min Rain = 0
KHA2 140138Z 11010KT 08/M06 A3027 RMK A01 T00831064  RH  035%=      5-min Rain = 0
KHA2 140139Z 11010KT 08/M06 A3027 RMK A01 T00821064  RH  035%=      5-min Rain = 0
KHA2 140140Z 11010KT 08/M06 A3027 RMK A01 T00821064  RH  035%=      5-min Rain = 0
KHA2 140141Z 11010KT 08/M06 A3027 RMK A01 T00821064  RH  035%=      5-min Rain = 0
KHA2 140142Z 11010KT 08/M07 A3027 RMK A01 T00821065  RH  035%=      5-min Rain = 0
KHA2 140143Z 11010KT 08/M07 A3027 RMK A01 T00811065  RH  035%=      5-min Rain = 0
KHA2 140144Z 11010KT 08/M07 A3027 RMK A01 T00801065  RH  035%=      5-min Rain = 0
KHA2 140145Z 11010KT 08/M06 A3027 RMK A01 T00801064  RH  035%=      5-min Rain = 0
KHA2 140146Z 11010KT 08/M06 A3027 RMK A01 T00791063  RH  036%=      5-min Rain = 0
KHA2 140147Z 11010KT 08/M06 A3028 RMK A01 T00791062  RH  036%=      5-min Rain = 0
KHA2 140148Z 11010KT 08/M06 A3028 RMK A01 T00791062  RH  036%=      5-min Rain = 0
KHA2 140149Z 11010KT 08/M06 A3028 RMK A01 T00781064  RH  036%=      5-min Rain = 0
KHA2 140150Z 11010KT 08/M07 A3028 RMK A01 T00771065  RH  036%=      5-min Rain = 0
KHA2 140151Z 11010KT 08/M06 A3027 RMK A01 T00761064  RH  036%=      5-min Rain = 0
KHA2 140152Z 11010KT 08/M06 A3027 RMK A01 T00751063  RH  037%=      5-min Rain = 0
KHA2 140153Z 11010KT 08/M06 A3027 RMK A01 T00761064  RH  036%=      5-min Rain = 0
KHA2 140154Z 11010KT 08/M06 A3027 RMK A01 T00751064  RH  037%=      5-min Rain = 0
KHA2 140155Z 11010KT 07/M07 A3027 RMK A01 T00741065  RH  037%=      5-min Rain = 0
KHA2 140156Z 11010KT 07/M07 A3027 RMK A01 T00741065  RH  036%=      5-min Rain = 0
KHA2 140157Z 11010KT 07/M07 A3027 RMK A01 T00731067  RH  036%=      5-min Rain = 0
KHA2 140158Z 11010KT 07/M07 A3028 RMK A01 T00721068  RH  036%=      5-min Rain = 0
KHA2 140159Z 11009KT 07/M07 A3028 RMK A01 T00721069  RH  036%=      5-min Rain = 0
KHA2 140200Z 11009KT 07/M07 A3028 RMK A01 T00701069  RH  036%=      5-min Rain = 0
KHA2 140201Z 11010KT 07/M07 A3028 RMK A01 T00701069  RH  036%=      5-min Rain = 0
KHA2 140202Z 11009KT 07/M07 A3028 RMK A01 T00691069  RH  036%=      5-min Rain = 0
KHA2 140203Z 11009KT 07/M07 A3028 RMK A01 T00691070  RH  036%=      5-min Rain = 0
KHA2 140204Z 12009KT 07/M07 A3028 RMK A01 T00681070  RH  037%=      5-min Rain = 0
KHA2 140205Z 12009KT 07/M07 A3028 RMK A01 T00681070  RH  037%=      5-min Rain = 0
KHA2 140206Z 11009KT 07/M07 A3028 RMK A01 T00671071  RH  037%=      5-min Rain = 0
KHA2 140207Z 11009KT 07/M07 A3028 RMK A01 T00661070  RH  037%=      5-min Rain = 0
KHA2 140208Z 11009KT 07/M07 A3028 RMK A01 T00661070  RH  037%=      5-min Rain = 0
KHA2 140209Z 11009KT 07/M07 A3028 RMK A01 T00651070  RH  037%=      5-min Rain = 0
KHA2 140210Z 11010KT 07/M07 A3028 RMK A01 T00661070  RH  037%=      5-min Rain = 0
KHA2 140211Z 12009KT 07/M07 A3028 RMK A01 T00661070  RH  037%=      5-min Rain = 0
KHA2 140212Z 12008KT 07/M07 A3028 RMK A01 T00661071  RH  037%=      5-min Rain = 0
KHA2 140213Z 12009KT 06/M07 A3028 RMK A01 T00641071  RH  037%=      5-min Rain = 0
KHA2 140214Z 12009KT 06/M07 A3028 RMK A01 T00641071  RH  037%=      5-min Rain = 0
KHA2 140215Z 12009KT 06/M07 A3028 RMK A01 T00641071  RH  037%=      5-min Rain = 0
KHA2 140216Z 12009KT 06/M07 A3028 RMK A01 T00641071  RH  037%=      5-min Rain = 0
KHA2 140217Z 12008KT 06/M07 A3028 RMK A01 T00641071  RH  037%=      5-min Rain = 0
KHA2 140218Z 12009KT 06/M07 A3028 RMK A01 T00631071  RH  037%=      5-min Rain = 0
KHA2 140219Z 12009KT 06/M07 A3028 RMK A01 T00631072  RH  038%=      5-min Rain = 0
KHA2 140220Z 12010KT 06/M07 A3028 RMK A01 T00631071  RH  038%=      5-min Rain = 0
KHA2 140221Z 12009KT 06/M07 A3028 RMK A01 T00631071  RH  038%=      5-min Rain = 0
KHA2 140222Z 12009KT 06/M07 A3028 RMK A01 T00631071  RH  038%=      5-min Rain = 0
KHA2 140223Z 12010KT 06/M07 A3029 RMK A01 T00631071  RH  038%=      5-min Rain = 0
KHA2 140224Z 12009KT 06/M07 A3029 RMK A01 T00631071  RH  038%=      5-min Rain = 0
KHA2 140225Z 12009KT 06/M07 A3029 RMK A01 T00621072  RH  038%=      5-min Rain = 0
KHA2 140226Z 12009KT 06/M07 A3029 RMK A01 T00611072  RH  038%=      5-min Rain = 0
KHA2 140227Z 12009KT 06/M07 A3029 RMK A01 T00601073  RH  038%=      5-min Rain = 0
KHA2 140228Z 12009KT 06/M07 A3029 RMK A01 T00601072  RH  038%=      5-min Rain = 0
KHA2 140229Z 12008KT 06/M07 A3029 RMK A01 T00591073  RH  038%=      5-min Rain = 0
KHA2 140230Z 12009KT 06/M07 A3029 RMK A01 T00581073  RH  038%=      5-min Rain = 0
KHA2 140231Z 12009KT 06/M07 A3029 RMK A01 T00571074  RH  038%=      5-min Rain = 0
KHA2 140232Z 12008KT 06/M07 A3029 RMK A01 T00561074  RH  039%=      5-min Rain = 0
KHA2 140233Z 12009KT 06/M07 A3029 RMK A01 T00551074  RH  039%=      5-min Rain = 0
KHA2 140234Z 12008KT 05/M08 A3029 RMK A01 T00541075  RH  039%=      5-min Rain = 0
KHA2 140235Z 12008KT 05/M08 A3029 RMK A01 T00541075  RH  039%=      5-min Rain = 0
KHA2 140236Z 12009KT 05/M08 A3029 RMK A01 T00531075  RH  039%=      5-min Rain = 0
KHA2 140237Z 12008KT 05/M08 A3029 RMK A01 T00521076  RH  039%=      5-min Rain = 0
KHA2 140238Z 12008KT 05/M08 A3029 RMK A01 T00521075  RH  039%=      5-min Rain = 0
KHA2 140239Z 11009KT 05/M08 A3029 RMK A01 T00511075  RH  039%=      5-min Rain = 0
KHA2 140240Z 12008KT 05/M08 A3029 RMK A01 T00501076  RH  040%=      5-min Rain = 0
KHA2 140241Z 12008KT 05/M08 A3029 RMK A01 T00501076  RH  040%=      5-min Rain = 0
KHA2 140242Z 12008KT 05/M08 A3029 RMK A01 T00501075  RH  040%=      5-min Rain = 0
KHA2 140243Z 12008KT 05/M08 A3029 RMK A01 T00501075  RH  040%=      5-min Rain = 0
KHA2 140244Z 12008KT 05/M08 A3029 RMK A01 T00501076  RH  040%=      5-min Rain = 0
KHA2 140245Z 12008KT 05/M08 A3029 RMK A01 T00491076  RH  040%=      5-min Rain = 0
KHA2 140246Z 12008KT 05/M08 A3029 RMK A01 T00491076  RH  040%=      5-min Rain = 0
KHA2 140247Z 12008KT 05/M08 A303 RMK A01 T00481077  RH  040%=      5-min Rain = 0
KHA2 140248Z 12008KT 05/M08 A303 RMK A01 T00481077  RH  040%=      5-min Rain = 0
KHA2 140249Z 12008KT 05/M08 A303 RMK A01 T00471077  RH  040%=      5-min Rain = 0
KHA2 140250Z 12008KT 05/M08 A303 RMK A01 T00471077  RH  040%=      5-min Rain = 0
KHA2 140251Z 12008KT 05/M08 A303 RMK A01 T00461077  RH  040%=      5-min Rain = 0
KHA2 140252Z 12008KT 05/M08 A303 RMK A01 T00461078  RH  040%=      5-min Rain = 0
KHA2 140253Z 12008KT 05/M08 A303 RMK A01 T00451078  RH  041%=      5-min Rain = 0
KHA2 140254Z 12008KT 04/M08 A303 RMK A01 T00441078  RH  041%=      5-min Rain = 0
KHA2 140255Z 12008KT 04/M08 A303 RMK A01 T00431078  RH  041%=      5-min Rain = 0
KHA2 140256Z 12008KT 04/M08 A303 RMK A01 T00421079  RH  041%=      5-min Rain = 0
KHA2 140257Z 12008KT 04/M08 A303 RMK A01 T00411078  RH  041%=      5-min Rain = 0
KHA2 140258Z 12008KT 04/M08 A303 RMK A01 T00411078  RH  042%=      5-min Rain = 0
KHA2 140259Z 12008KT 04/M08 A303 RMK A01 T00401079  RH  042%=      5-min Rain = 0
KHA2 140300Z 11009KT 04/M08 A303 RMK A01 T00381078  RH  042%=      5-min Rain = 0
KHA2 140301Z 10009KT 04/M07 A303 RMK A01 T00391070  RH  045%=      5-min Rain = 0
KHA2 140302Z 10008KT 04/M07 A303 RMK A01 T00411068  RH  045%=      5-min Rain = 0
KHA2 140303Z 11009KT 04/M07 A303 RMK A01 T00431067  RH  045%=      5-min Rain = 0
KHA2 140304Z 11009KT 04/M07 A303 RMK A01 T00441070  RH  043%=      5-min Rain = 0
KHA2 140305Z 10008KT 04/M07 A303 RMK A01 T00441072  RH  043%=      5-min Rain = 0
KHA2 140306Z 11009KT 04/M07 A303 RMK A01 T00431072  RH  043%=      5-min Rain = 0
KHA2 140307Z 11009KT 04/M07 A303 RMK A01 T00431073  RH  043%=      5-min Rain = 0
KHA2 140308Z 11009KT 04/M08 A303 RMK A01 T00421076  RH  042%=      5-min Rain = 0
KHA2 140309Z 11009KT 04/M08 A303 RMK A01 T00401078  RH  042%=      5-min Rain = 0
KHA2 140310Z 11009KT 04/M08 A303 RMK A01 T00391079  RH  042%=      5-min Rain = 0
KHA2 140311Z 11009KT 04/M08 A303 RMK A01 T00381079  RH  042%=      5-min Rain = 0
KHA2 140312Z 11009KT 04/M08 A303 RMK A01 T00381079  RH  042%=      5-min Rain = 0
KHA2 140313Z 12009KT 04/M08 A303 RMK A01 T00381079  RH  042%=      5-min Rain = 0
KHA2 140314Z 12008KT 04/M08 A303 RMK A01 T00381079  RH  042%=      5-min Rain = 0
KHA2 140315Z 12009KT 04/M08 A303 RMK A01 T00381078  RH  042%=      5-min Rain = 0
KHA2 140316Z 12009KT 04/M08 A303 RMK A01 T00381078  RH  042%=      5-min Rain = 0
KHA2 140317Z 12010KT 04/M08 A303 RMK A01 T00381078  RH  042%=      5-min Rain = 0
KHA2 140318Z 12010KT 04/M08 A303 RMK A01 T00381079  RH  042%=      5-min Rain = 0
KHA2 140319Z 12009KT 04/M08 A303 RMK A01 T00381079  RH  042%=      5-min Rain = 0
KHA2 140320Z 12010KT 04/M08 A303 RMK A01 T00381079  RH  042%=      5-min Rain = 0
KHA2 140321Z 11010KT 04/M08 A303 RMK A01 T00381079  RH  042%=      5-min Rain = 0
KHA2 140322Z 11010KT 04/M08 A303 RMK A01 T00381079  RH  042%=      5-min Rain = 0
KHA2 140323Z 11010KT 04/M08 A303 RMK A01 T00391078  RH  042%=      5-min Rain = 0
KHA2 140324Z 11010KT 04/M08 A303 RMK A01 T00391078  RH  042%=      5-min Rain = 0
KHA2 140325Z 11010KT 04/M08 A303 RMK A01 T00391078  RH  042%=      5-min Rain = 0
KHA2 140326Z 11010KT 04/M08 A303 RMK A01 T00401078  RH  042%=      5-min Rain = 0
KHA2 140327Z 11010KT 04/M08 A303 RMK A01 T00401078  RH  042%=      5-min Rain = 0
KHA2 140328Z 11010KT 04/M08 A303 RMK A01 T00411077  RH  042%=      5-min Rain = 0
KHA2 140329Z 11010KT 04/M08 A3031 RMK A01 T00411077  RH  042%=      5-min Rain = 0
KHA2 140330Z 11009KT 04/M08 A3031 RMK A01 T00411077  RH  042%=      5-min Rain = 0
KHA2 140331Z 11009KT 04/M08 A3031 RMK A01 T00421077  RH  042%=      5-min Rain = 0
KHA2 140332Z 11009KT 04/M08 A3031 RMK A01 T00411077  RH  042%=      5-min Rain = 0
KHA2 140333Z 11009KT 04/M08 A3031 RMK A01 T00421076  RH  042%=      5-min Rain = 0
KHA2 140334Z 11010KT 04/M08 A3031 RMK A01 T00411077  RH  042%=      5-min Rain = 0
KHA2 140335Z 11010KT 04/M08 A3031 RMK A01 T00411077  RH  042%=      5-min Rain = 0
KHA2 140336Z 11009KT 04/M08 A3031 RMK A01 T00411076  RH  042%=      5-min Rain = 0
KHA2 140337Z 11009KT 04/M08 A3031 RMK A01 T00411077  RH  042%=      5-min Rain = 0
KHA2 140338Z 11010KT 04/M08 A3031 RMK A01 T00401077  RH  042%=      5-min Rain = 0
KHA2 140339Z 11009KT 04/M08 A3031 RMK A01 T00401078  RH  042%=      5-min Rain = 0
KHA2 140340Z 11009KT 04/M08 A3031 RMK A01 T00391078  RH  042%=      5-min Rain = 0
KHA2 140341Z 11009KT 04/M08 A3031 RMK A01 T00391078  RH  042%=      5-min Rain = 0
KHA2 140342Z 11009KT 04/M08 A3031 RMK A01 T00381079  RH  042%=      5-min Rain = 0
KHA2 140343Z 11009KT 04/M08 A3031 RMK A01 T00371079  RH  042%=      5-min Rain = 0
KHA2 140344Z 11009KT 04/M08 A3031 RMK A01 T00371079  RH  043%=      5-min Rain = 0
KHA2 140345Z 11009KT 04/M08 A3031 RMK A01 T00371078  RH  043%=      5-min Rain = 0
KHA2 140346Z 11009KT 04/M08 A3031 RMK A01 T00371078  RH  043%=      5-min Rain = 0
KHA2 140347Z 12009KT 04/M08 A3031 RMK A01 T00361078  RH  043%=      5-min Rain = 0
KHA2 140348Z 12009KT 04/M08 A3031 RMK A01 T00361079  RH  043%=      5-min Rain = 0
KHA2 140349Z 12009KT 04/M08 A3031 RMK A01 T00351079  RH  043%=      5-min Rain = 0
KHA2 140350Z 11009KT 03/M08 A3031 RMK A01 T00341079  RH  043%=      5-min Rain = 0
KHA2 140351Z 12009KT 03/M08 A3031 RMK A01 T00341080  RH  043%=      5-min Rain = 0
KHA2 140352Z 12009KT 03/M08 A3031 RMK A01 T00331080  RH  043%=      5-min Rain = 0
KHA2 140353Z 11009KT 03/M08 A3031 RMK A01 T00331080  RH  044%=      5-min Rain = 0
KHA2 140354Z 12009KT 03/M08 A3031 RMK A01 T00321080  RH  044%=      5-min Rain = 0
KHA2 140355Z 12009KT 03/M08 A3031 RMK A01 T00311080  RH  044%=      5-min Rain = 0
KHA2 140356Z 11009KT 03/M08 A3031 RMK A01 T00311080  RH  044%=      5-min Rain = 0
KHA2 140357Z 12009KT 03/M08 A3031 RMK A01 T00301080  RH  044%=      5-min Rain = 0
KHA2 140358Z 12008KT 03/M08 A3031 RMK A01 T00301080  RH  044%=      5-min Rain = 0
KHA2 140359Z 12009KT 03/M08 A3031 RMK A01 T00301080  RH  044%=      5-min Rain = 0
KHA2 140400Z 12008KT 03/M08 A3031 RMK A01 T00291080  RH  044%=      5-min Rain = 0
KHA2 140401Z 12008KT 03/M08 A3031 RMK A01 T00291080  RH  045%=      5-min Rain = 0
KHA2 140402Z 12008KT 03/M08 A3031 RMK A01 T00281081  RH  045%=      5-min Rain = 0
KHA2 140403Z 12007KT 03/M08 A3031 RMK A01 T00271081  RH  045%=      5-min Rain = 0
KHA2 140404Z 12008KT 03/M08 A3031 RMK A01 T00261082  RH  045%=      5-min Rain = 0
KHA2 140405Z 12008KT 03/M08 A3031 RMK A01 T00251082  RH  045%=      5-min Rain = 0
KHA2 140406Z 12008KT 02/M08 A3031 RMK A01 T00241082  RH  045%=      5-min Rain = 0
KHA2 140407Z 12008KT 02/M08 A3031 RMK A01 T00241082  RH  046%=      5-min Rain = 0
KHA2 140408Z 12008KT 02/M08 A3031 RMK A01 T00241082  RH  046%=      5-min Rain = 0
KHA2 140409Z 12008KT 02/M08 A3031 RMK A01 T00231082  RH  046%=      5-min Rain = 0
KHA2 140410Z 12008KT 02/M08 A3031 RMK A01 T00231082  RH  046%=      5-min Rain = 0
KHA2 140411Z 12008KT 02/M08 A3031 RMK A01 T00231082  RH  046%=      5-min Rain = 0
KHA2 140412Z 12008KT 02/M08 A3031 RMK A01 T00221082  RH  046%=      5-min Rain = 0
KHA2 140413Z 12008KT 02/M08 A3031 RMK A01 T00221082  RH  046%=      5-min Rain = 0
KHA2 140414Z 12008KT 02/M08 A3031 RMK A01 T00211082  RH  046%=      5-min Rain = 0
KHA2 140415Z 12007KT 02/M08 A3031 RMK A01 T00211082  RH  047%=      5-min Rain = 0
KHA2 140416Z 12008KT 02/M08 A3031 RMK A01 T00211082  RH  047%=      5-min Rain = 0
KHA2 140417Z 12008KT 02/M08 A3031 RMK A01 T00201082  RH  047%=      5-min Rain = 0
KHA2 140418Z 12007KT 02/M08 A3031 RMK A01 T00191082  RH  047%=      5-min Rain = 0
KHA2 140419Z 12007KT 02/M08 A3031 RMK A01 T00181082  RH  047%=      5-min Rain = 0
KHA2 140420Z 12007KT 02/M08 A3031 RMK A01 T00181082  RH  048%=      5-min Rain = 0
KHA2 140421Z 12007KT 02/M08 A3031 RMK A01 T00171082  RH  048%=      5-min Rain = 0
KHA2 140422Z 12007KT 02/M08 A3031 RMK A01 T00161082  RH  048%=      5-min Rain = 0
KHA2 140423Z 12008KT 02/M08 A3031 RMK A01 T00161083  RH  048%=      5-min Rain = 0
KHA2 140424Z 12008KT 02/M08 A3031 RMK A01 T00151083  RH  048%=      5-min Rain = 0
KHA2 140425Z 12008KT 02/M08 A3031 RMK A01 T00151083  RH  048%=      5-min Rain = 0
KHA2 140426Z 12008KT 01/M08 A3031 RMK A01 T00141083  RH  048%=      5-min Rain = 0
KHA2 140427Z 12008KT 01/M08 A3031 RMK A01 T00141083  RH  048%=      5-min Rain = 0
KHA2 140428Z 12008KT 01/M08 A3031 RMK A01 T00141083  RH  048%=      5-min Rain = 0
KHA2 140429Z 12008KT 01/M08 A3031 RMK A01 T00141083  RH  048%=      5-min Rain = 0
KHA2 140430Z 12008KT 01/M08 A3031 RMK A01 T00141083  RH  048%=      5-min Rain = 0
KHA2 140431Z 12008KT 02/M08 A3031 RMK A01 T00151082  RH  048%=      5-min Rain = 0
KHA2 140432Z 12008KT 02/M08 A3031 RMK A01 T00151083  RH  048%=      5-min Rain = 0
KHA2 140433Z 12008KT 02/M08 A3031 RMK A01 T00151083  RH  048%=      5-min Rain = 0
KHA2 140434Z 12009KT 02/M08 A3031 RMK A01 T00151083  RH  048%=      5-min Rain = 0
KHA2 140435Z 12009KT 02/M08 A3031 RMK A01 T00151083  RH  048%=      5-min Rain = 0
KHA2 140436Z 13008KT 02/M08 A3031 RMK A01 T00161082  RH  048%=      5-min Rain = 0
KHA2 140437Z 13008KT 02/M08 A3031 RMK A01 T00151082  RH  048%=      5-min Rain = 0
KHA2 140438Z 13008KT 02/M08 A3031 RMK A01 T00151083  RH  048%=      5-min Rain = 0
KHA2 140439Z 13008KT 02/M08 A3031 RMK A01 T00151083  RH  048%=      5-min Rain = 0
KHA2 140440Z 13008KT 01/M08 A3031 RMK A01 T00131084  RH  048%=      5-min Rain = 0
KHA2 140441Z 13009KT 01/M08 A3031 RMK A01 T00121084  RH  049%=      5-min Rain = 0
KHA2 140442Z 13008KT 01/M09 A3031 RMK A01 T00101085  RH  049%=      5-min Rain = 0
KHA2 140443Z 13008KT 01/M09 A3031 RMK A01 T00091085  RH  049%=      5-min Rain = 0
KHA2 140444Z 14008KT 01/M09 A3031 RMK A01 T00071086  RH  050%=      5-min Rain = 0
KHA2 140445Z 14008KT 01/M09 A3031 RMK A01 T00051087  RH  050%=      5-min Rain = 0
KHA2 140446Z 14008KT 00/M09 A3031 RMK A01 T00031088  RH  051%=      5-min Rain = 0
KHA2 140447Z 14008KT 00/M09 A3031 RMK A01 T00011088  RH  051%=      5-min Rain = 0
KHA2 140448Z 14008KT 00/09 A3031 RMK A01 T00-00-89  RH  051%=      5-min Rain = 0
KHA2 140449Z 14008KT M00/M09 A3031 RMK A01 T10021089  RH  052%=      5-min Rain = 0
KHA2 140450Z 14008KT M00/M09 A3031 RMK A01 T10031090  RH  052%=      5-min Rain = 0
KHA2 140451Z 14008KT M00/M09 A3031 RMK A01 T10041090  RH  052%=      5-min Rain = 0
KHA2 140452Z 14008KT M01/M09 A3031 RMK A01 T10051091  RH  052%=      5-min Rain = 0
KHA2 140453Z 14008KT M01/M09 A3031 RMK A01 T10071092  RH  053%=      5-min Rain = 0
KHA2 140454Z 14008KT M01/M09 A3031 RMK A01 T10081092  RH  053%=      5-min Rain = 0
KHA2 140455Z 14008KT M01/M09 A3031 RMK A01 T10091092  RH  053%=      5-min Rain = 0
KHA2 140456Z 14008KT M01/M09 A3031 RMK A01 T10091092  RH  054%=      5-min Rain = 0
KHA2 140457Z 14008KT M01/M09 A3031 RMK A01 T10091092  RH  054%=      5-min Rain = 0
KHA2 140458Z 14008KT M01/M09 A3031 RMK A01 T10101092  RH  054%=      5-min Rain = 0
KHA2 140459Z 14008KT M01/M09 A3031 RMK A01 T10101093  RH  054%=      5-min Rain = 0

Page generated in 0.1549 seconds.